<?xml version="1.0" encoding="UTF-8" standalone="no" ?>
<gpx xmlns="http://www.topografix.com/GPX/1/1" xmlns:xsi="http://www.w3.org/2001/XMLSchema-instance" xsi:schemaLocation="http://www.topografix.com/GPX/1/1 http://www.topografix.com/GPX/1/1/gpx.xsd" version="1.1" creator="VisuGPX - https://www.visugpx.com">
  <metadata>
    <name>64 - PEDESTRE - GR 108 de Laruns à Miegebat - Entretien balisage</name>
    <desc><![CDATA[Entretien balisage GR 108 fait avec Didier sens montée (photographe Laurence Fleury)]]></desc>
  </metadata>
  <trk>
    <name><![CDATA[ACTIVE LOG]]></name>
    <trkseg>
      <trkpt lat="42.9885" lon="-0.4249">
        <ele>519.729858</ele>
        <time>2014-03-31T08:24:47Z</time>
      </trkpt>
      <trkpt lat="42.9885" lon="-0.4249">
        <ele>519.729858</ele>
        <time>2014-03-31T08:24:48Z</time>
      </trkpt>
      <trkpt lat="42.98852" lon="-0.42491">
        <ele>521.171997</ele>
        <time>2014-03-31T08:25:11Z</time>
      </trkpt>
      <trkpt lat="42.98852" lon="-0.42491">
        <ele>521.652588</ele>
        <time>2014-03-31T08:25:27Z</time>
      </trkpt>
      <trkpt lat="42.98852" lon="-0.42492">
        <ele>521.652588</ele>
        <time>2014-03-31T08:25:50Z</time>
      </trkpt>
      <trkpt lat="42.98844" lon="-0.42501">
        <ele>523.575195</ele>
        <time>2014-03-31T08:26:28Z</time>
      </trkpt>
      <trkpt lat="42.9884" lon="-0.42506">
        <ele>524.536499</ele>
        <time>2014-03-31T08:26:34Z</time>
      </trkpt>
      <trkpt lat="42.98817" lon="-0.42515">
        <ele>525.978394</ele>
        <time>2014-03-31T08:26:57Z</time>
      </trkpt>
      <trkpt lat="42.98813" lon="-0.42521">
        <ele>525.978394</ele>
        <time>2014-03-31T08:27:03Z</time>
      </trkpt>
      <trkpt lat="42.98812" lon="-0.42551">
        <ele>527.42041</ele>
        <time>2014-03-31T08:27:26Z</time>
      </trkpt>
      <trkpt lat="42.9881" lon="-0.42572">
        <ele>527.901001</ele>
        <time>2014-03-31T08:27:41Z</time>
      </trkpt>
      <trkpt lat="42.98808" lon="-0.42598">
        <ele>528.862549</ele>
        <time>2014-03-31T08:27:59Z</time>
      </trkpt>
      <trkpt lat="42.98809" lon="-0.4261">
        <ele>529.34314</ele>
        <time>2014-03-31T08:28:09Z</time>
      </trkpt>
      <trkpt lat="42.988" lon="-0.42616">
        <ele>529.34314</ele>
        <time>2014-03-31T08:28:14Z</time>
      </trkpt>
      <trkpt lat="42.98789" lon="-0.42622">
        <ele>530.785156</ele>
        <time>2014-03-31T08:28:31Z</time>
      </trkpt>
      <trkpt lat="42.98789" lon="-0.42623">
        <ele>530.304443</ele>
        <time>2014-03-31T08:28:46Z</time>
      </trkpt>
      <trkpt lat="42.98789" lon="-0.42623">
        <ele>529.82373</ele>
        <time>2014-03-31T08:29:14Z</time>
      </trkpt>
      <trkpt lat="42.98795" lon="-0.42624">
        <ele>529.34314</ele>
        <time>2014-03-31T08:29:32Z</time>
      </trkpt>
      <trkpt lat="42.98795" lon="-0.42625">
        <ele>529.82373</ele>
        <time>2014-03-31T08:30:00Z</time>
      </trkpt>
      <trkpt lat="42.98796" lon="-0.42622">
        <ele>530.785156</ele>
        <time>2014-03-31T08:30:13Z</time>
      </trkpt>
      <trkpt lat="42.98798" lon="-0.42624">
        <ele>532.707764</ele>
        <time>2014-03-31T08:31:14Z</time>
      </trkpt>
      <trkpt lat="42.98799" lon="-0.42625">
        <ele>533.188354</ele>
        <time>2014-03-31T08:32:20Z</time>
      </trkpt>
      <trkpt lat="42.98794" lon="-0.42635">
        <ele>533.668945</ele>
        <time>2014-03-31T08:32:35Z</time>
      </trkpt>
      <trkpt lat="42.98789" lon="-0.42639">
        <ele>533.668945</ele>
        <time>2014-03-31T08:32:48Z</time>
      </trkpt>
      <trkpt lat="42.98775" lon="-0.42652">
        <ele>534.149658</ele>
        <time>2014-03-31T08:33:05Z</time>
      </trkpt>
      <trkpt lat="42.98765" lon="-0.42659">
        <ele>533.668945</ele>
        <time>2014-03-31T08:33:23Z</time>
      </trkpt>
      <trkpt lat="42.9876" lon="-0.42662">
        <ele>534.149658</ele>
        <time>2014-03-31T08:33:52Z</time>
      </trkpt>
      <trkpt lat="42.98758" lon="-0.42662">
        <ele>533.668945</ele>
        <time>2014-03-31T08:34:12Z</time>
      </trkpt>
      <trkpt lat="42.98742" lon="-0.42651">
        <ele>533.668945</ele>
        <time>2014-03-31T08:34:27Z</time>
      </trkpt>
      <trkpt lat="42.98737" lon="-0.4265">
        <ele>533.668945</ele>
        <time>2014-03-31T08:34:43Z</time>
      </trkpt>
      <trkpt lat="42.98732" lon="-0.4265">
        <ele>534.149658</ele>
        <time>2014-03-31T08:34:54Z</time>
      </trkpt>
      <trkpt lat="42.98732" lon="-0.42652">
        <ele>534.630371</ele>
        <time>2014-03-31T08:34:58Z</time>
      </trkpt>
      <trkpt lat="42.98714" lon="-0.42657">
        <ele>534.630371</ele>
        <time>2014-03-31T08:35:15Z</time>
      </trkpt>
      <trkpt lat="42.98702" lon="-0.42664">
        <ele>536.072388</ele>
        <time>2014-03-31T08:35:29Z</time>
      </trkpt>
      <trkpt lat="42.98686" lon="-0.42668">
        <ele>536.072388</ele>
        <time>2014-03-31T08:35:42Z</time>
      </trkpt>
      <trkpt lat="42.98674" lon="-0.42677">
        <ele>536.553101</ele>
        <time>2014-03-31T08:35:56Z</time>
      </trkpt>
      <trkpt lat="42.98649" lon="-0.42687">
        <ele>537.033691</ele>
        <time>2014-03-31T08:36:15Z</time>
      </trkpt>
      <trkpt lat="42.98624" lon="-0.42696">
        <ele>537.514282</ele>
        <time>2014-03-31T08:36:39Z</time>
      </trkpt>
      <trkpt lat="42.98627" lon="-0.42696">
        <ele>537.033691</ele>
        <time>2014-03-31T08:36:56Z</time>
      </trkpt>
      <trkpt lat="42.98631" lon="-0.42697">
        <ele>536.553101</ele>
        <time>2014-03-31T08:37:29Z</time>
      </trkpt>
      <trkpt lat="42.98629" lon="-0.42696">
        <ele>537.514282</ele>
        <time>2014-03-31T08:38:04Z</time>
      </trkpt>
      <trkpt lat="42.98624" lon="-0.42695">
        <ele>537.033691</ele>
        <time>2014-03-31T08:39:01Z</time>
      </trkpt>
      <trkpt lat="42.98621" lon="-0.42697">
        <ele>537.033691</ele>
        <time>2014-03-31T08:39:17Z</time>
      </trkpt>
      <trkpt lat="42.98615" lon="-0.42701">
        <ele>536.553101</ele>
        <time>2014-03-31T08:39:25Z</time>
      </trkpt>
      <trkpt lat="42.98613" lon="-0.42702">
        <ele>537.033691</ele>
        <time>2014-03-31T08:39:27Z</time>
      </trkpt>
      <trkpt lat="42.98594" lon="-0.42709">
        <ele>536.553101</ele>
        <time>2014-03-31T08:39:46Z</time>
      </trkpt>
      <trkpt lat="42.98573" lon="-0.42716">
        <ele>537.033691</ele>
        <time>2014-03-31T08:40:05Z</time>
      </trkpt>
      <trkpt lat="42.98546" lon="-0.42724">
        <ele>536.553101</ele>
        <time>2014-03-31T08:40:26Z</time>
      </trkpt>
      <trkpt lat="42.98528" lon="-0.42729">
        <ele>536.553101</ele>
        <time>2014-03-31T08:40:44Z</time>
      </trkpt>
      <trkpt lat="42.98523" lon="-0.42736">
        <ele>536.553101</ele>
        <time>2014-03-31T08:40:50Z</time>
      </trkpt>
      <trkpt lat="42.98507" lon="-0.4275">
        <ele>537.033691</ele>
        <time>2014-03-31T08:41:07Z</time>
      </trkpt>
      <trkpt lat="42.98505" lon="-0.42749">
        <ele>537.033691</ele>
        <time>2014-03-31T08:41:11Z</time>
      </trkpt>
      <trkpt lat="42.98485" lon="-0.42752">
        <ele>536.553101</ele>
        <time>2014-03-31T08:41:28Z</time>
      </trkpt>
      <trkpt lat="42.9848" lon="-0.4275">
        <ele>536.553101</ele>
        <time>2014-03-31T08:41:33Z</time>
      </trkpt>
      <trkpt lat="42.98472" lon="-0.42744">
        <ele>536.072388</ele>
        <time>2014-03-31T08:41:49Z</time>
      </trkpt>
      <trkpt lat="42.98472" lon="-0.42743">
        <ele>536.072388</ele>
        <time>2014-03-31T08:42:18Z</time>
      </trkpt>
      <trkpt lat="42.98472" lon="-0.42744">
        <ele>536.072388</ele>
        <time>2014-03-31T08:43:09Z</time>
      </trkpt>
      <trkpt lat="42.98472" lon="-0.42743">
        <ele>535.591553</ele>
        <time>2014-03-31T08:43:37Z</time>
      </trkpt>
      <trkpt lat="42.98471" lon="-0.42744">
        <ele>535.591553</ele>
        <time>2014-03-31T08:43:53Z</time>
      </trkpt>
      <trkpt lat="42.98471" lon="-0.42743">
        <ele>536.072388</ele>
        <time>2014-03-31T08:44:12Z</time>
      </trkpt>
      <trkpt lat="42.98471" lon="-0.42744">
        <ele>535.110962</ele>
        <time>2014-03-31T08:44:36Z</time>
      </trkpt>
      <trkpt lat="42.98471" lon="-0.42743">
        <ele>534.630371</ele>
        <time>2014-03-31T08:45:16Z</time>
      </trkpt>
      <trkpt lat="42.98469" lon="-0.42744">
        <ele>535.110962</ele>
        <time>2014-03-31T08:45:35Z</time>
      </trkpt>
      <trkpt lat="42.98467" lon="-0.42743">
        <ele>535.591553</ele>
        <time>2014-03-31T08:46:34Z</time>
      </trkpt>
      <trkpt lat="42.98465" lon="-0.42743">
        <ele>535.110962</ele>
        <time>2014-03-31T08:47:04Z</time>
      </trkpt>
      <trkpt lat="42.98466" lon="-0.42743">
        <ele>534.630371</ele>
        <time>2014-03-31T08:47:18Z</time>
      </trkpt>
      <trkpt lat="42.98472" lon="-0.42742">
        <ele>535.591553</ele>
        <time>2014-03-31T08:47:41Z</time>
      </trkpt>
      <trkpt lat="42.98473" lon="-0.42743">
        <ele>533.668945</ele>
        <time>2014-03-31T08:48:09Z</time>
      </trkpt>
      <trkpt lat="42.98475" lon="-0.42746">
        <ele>535.591553</ele>
        <time>2014-03-31T08:48:21Z</time>
      </trkpt>
      <trkpt lat="42.98475" lon="-0.4276">
        <ele>537.033691</ele>
        <time>2014-03-31T08:48:35Z</time>
      </trkpt>
      <trkpt lat="42.98469" lon="-0.42764">
        <ele>535.591553</ele>
        <time>2014-03-31T08:48:43Z</time>
      </trkpt>
      <trkpt lat="42.98442" lon="-0.42776">
        <ele>535.591553</ele>
        <time>2014-03-31T08:49:09Z</time>
      </trkpt>
      <trkpt lat="42.98422" lon="-0.42785">
        <ele>535.110962</ele>
        <time>2014-03-31T08:49:30Z</time>
      </trkpt>
      <trkpt lat="42.98397" lon="-0.42794">
        <ele>535.110962</ele>
        <time>2014-03-31T08:49:54Z</time>
      </trkpt>
      <trkpt lat="42.98372" lon="-0.428">
        <ele>535.110962</ele>
        <time>2014-03-31T08:50:17Z</time>
      </trkpt>
      <trkpt lat="42.9835" lon="-0.42794">
        <ele>534.149658</ele>
        <time>2014-03-31T08:50:37Z</time>
      </trkpt>
      <trkpt lat="42.98344" lon="-0.42795">
        <ele>533.188354</ele>
        <time>2014-03-31T08:50:50Z</time>
      </trkpt>
      <trkpt lat="42.9834" lon="-0.42797">
        <ele>534.149658</ele>
        <time>2014-03-31T08:50:55Z</time>
      </trkpt>
      <trkpt lat="42.98333" lon="-0.42799">
        <ele>534.149658</ele>
        <time>2014-03-31T08:51:04Z</time>
      </trkpt>
      <trkpt lat="42.98331" lon="-0.42801">
        <ele>534.149658</ele>
        <time>2014-03-31T08:51:09Z</time>
      </trkpt>
      <trkpt lat="42.98326" lon="-0.42802">
        <ele>534.149658</ele>
        <time>2014-03-31T08:51:13Z</time>
      </trkpt>
      <trkpt lat="42.98308" lon="-0.42808">
        <ele>534.630371</ele>
        <time>2014-03-31T08:51:30Z</time>
      </trkpt>
      <trkpt lat="42.98307" lon="-0.42806">
        <ele>534.149658</ele>
        <time>2014-03-31T08:51:33Z</time>
      </trkpt>
      <trkpt lat="42.98283" lon="-0.42807">
        <ele>535.591553</ele>
        <time>2014-03-31T08:51:55Z</time>
      </trkpt>
      <trkpt lat="42.98269" lon="-0.42792">
        <ele>537.033691</ele>
        <time>2014-03-31T08:52:13Z</time>
      </trkpt>
      <trkpt lat="42.9826" lon="-0.42768">
        <ele>537.514282</ele>
        <time>2014-03-31T08:52:34Z</time>
      </trkpt>
      <trkpt lat="42.98253" lon="-0.42748">
        <ele>539.917603</ele>
        <time>2014-03-31T08:52:50Z</time>
      </trkpt>
      <trkpt lat="42.98245" lon="-0.42733">
        <ele>541.84021</ele>
        <time>2014-03-31T08:53:05Z</time>
      </trkpt>
      <trkpt lat="42.98242" lon="-0.42729">
        <ele>542.320923</ele>
        <time>2014-03-31T08:53:20Z</time>
      </trkpt>
      <trkpt lat="42.9824" lon="-0.42729">
        <ele>542.320923</ele>
        <time>2014-03-31T08:53:40Z</time>
      </trkpt>
      <trkpt lat="42.98244" lon="-0.42729">
        <ele>541.84021</ele>
        <time>2014-03-31T08:54:11Z</time>
      </trkpt>
      <trkpt lat="42.98247" lon="-0.42727">
        <ele>541.84021</ele>
        <time>2014-03-31T08:54:41Z</time>
      </trkpt>
      <trkpt lat="42.98251" lon="-0.42728">
        <ele>541.84021</ele>
        <time>2014-03-31T08:55:16Z</time>
      </trkpt>
      <trkpt lat="42.98247" lon="-0.42727">
        <ele>542.320923</ele>
        <time>2014-03-31T08:55:45Z</time>
      </trkpt>
      <trkpt lat="42.98246" lon="-0.42727">
        <ele>542.320923</ele>
        <time>2014-03-31T08:56:27Z</time>
      </trkpt>
      <trkpt lat="42.98247" lon="-0.42728">
        <ele>542.801514</ele>
        <time>2014-03-31T08:57:00Z</time>
      </trkpt>
      <trkpt lat="42.98244" lon="-0.42727">
        <ele>542.801514</ele>
        <time>2014-03-31T08:57:17Z</time>
      </trkpt>
      <trkpt lat="42.98241" lon="-0.42726">
        <ele>541.359497</ele>
        <time>2014-03-31T08:57:40Z</time>
      </trkpt>
      <trkpt lat="42.98239" lon="-0.4272">
        <ele>541.84021</ele>
        <time>2014-03-31T08:57:54Z</time>
      </trkpt>
      <trkpt lat="42.98229" lon="-0.4271">
        <ele>544.724243</ele>
        <time>2014-03-31T08:58:06Z</time>
      </trkpt>
      <trkpt lat="42.98212" lon="-0.42687">
        <ele>546.646851</ele>
        <time>2014-03-31T08:58:29Z</time>
      </trkpt>
      <trkpt lat="42.98203" lon="-0.42661">
        <ele>548.088867</ele>
        <time>2014-03-31T08:58:48Z</time>
      </trkpt>
      <trkpt lat="42.98195" lon="-0.42631">
        <ele>550.492188</ele>
        <time>2014-03-31T08:59:10Z</time>
      </trkpt>
      <trkpt lat="42.9818" lon="-0.4261">
        <ele>552.414551</ele>
        <time>2014-03-31T08:59:30Z</time>
      </trkpt>
      <trkpt lat="42.98164" lon="-0.42602">
        <ele>555.779297</ele>
        <time>2014-03-31T08:59:46Z</time>
      </trkpt>
      <trkpt lat="42.98154" lon="-0.42598">
        <ele>557.221436</ele>
        <time>2014-03-31T08:59:56Z</time>
      </trkpt>
      <trkpt lat="42.98137" lon="-0.42591">
        <ele>560.105225</ele>
        <time>2014-03-31T09:00:15Z</time>
      </trkpt>
      <trkpt lat="42.98119" lon="-0.42582">
        <ele>562.989258</ele>
        <time>2014-03-31T09:00:36Z</time>
      </trkpt>
      <trkpt lat="42.98116" lon="-0.42579">
        <ele>563.469971</ele>
        <time>2014-03-31T09:00:51Z</time>
      </trkpt>
      <trkpt lat="42.98106" lon="-0.42576">
        <ele>565.392578</ele>
        <time>2014-03-31T09:01:07Z</time>
      </trkpt>
      <trkpt lat="42.98095" lon="-0.42569">
        <ele>566.35376</ele>
        <time>2014-03-31T09:01:18Z</time>
      </trkpt>
      <trkpt lat="42.98078" lon="-0.42561">
        <ele>570.198975</ele>
        <time>2014-03-31T09:01:34Z</time>
      </trkpt>
      <trkpt lat="42.98077" lon="-0.42561">
        <ele>570.198975</ele>
        <time>2014-03-31T09:01:35Z</time>
      </trkpt>
      <trkpt lat="42.98072" lon="-0.4256">
        <ele>570.679688</ele>
        <time>2014-03-31T09:01:39Z</time>
      </trkpt>
      <trkpt lat="42.98053" lon="-0.4256">
        <ele>573.563965</ele>
        <time>2014-03-31T09:01:56Z</time>
      </trkpt>
      <trkpt lat="42.98034" lon="-0.42559">
        <ele>575.486328</ele>
        <time>2014-03-31T09:02:15Z</time>
      </trkpt>
      <trkpt lat="42.9802" lon="-0.42558">
        <ele>579.331543</ele>
        <time>2014-03-31T09:02:29Z</time>
      </trkpt>
      <trkpt lat="42.97999" lon="-0.42559">
        <ele>581.734863</ele>
        <time>2014-03-31T09:02:52Z</time>
      </trkpt>
      <trkpt lat="42.97984" lon="-0.42561">
        <ele>584.618896</ele>
        <time>2014-03-31T09:03:08Z</time>
      </trkpt>
      <trkpt lat="42.97967" lon="-0.42568">
        <ele>587.983398</ele>
        <time>2014-03-31T09:03:28Z</time>
      </trkpt>
      <trkpt lat="42.97952" lon="-0.42576">
        <ele>590.867432</ele>
        <time>2014-03-31T09:03:45Z</time>
      </trkpt>
      <trkpt lat="42.97937" lon="-0.42587">
        <ele>592.790283</ele>
        <time>2014-03-31T09:04:04Z</time>
      </trkpt>
      <trkpt lat="42.97928" lon="-0.42594">
        <ele>596.154785</ele>
        <time>2014-03-31T09:04:15Z</time>
      </trkpt>
      <trkpt lat="42.97926" lon="-0.42597">
        <ele>596.635498</ele>
        <time>2014-03-31T09:04:30Z</time>
      </trkpt>
      <trkpt lat="42.97925" lon="-0.42594">
        <ele>597.115967</ele>
        <time>2014-03-31T09:05:03Z</time>
      </trkpt>
      <trkpt lat="42.97919" lon="-0.42597">
        <ele>597.115967</ele>
        <time>2014-03-31T09:05:24Z</time>
      </trkpt>
      <trkpt lat="42.97912" lon="-0.42605">
        <ele>599.519287</ele>
        <time>2014-03-31T09:05:32Z</time>
      </trkpt>
      <trkpt lat="42.979" lon="-0.42613">
        <ele>601.922607</ele>
        <time>2014-03-31T09:05:43Z</time>
      </trkpt>
      <trkpt lat="42.97896" lon="-0.42618">
        <ele>603.364502</ele>
        <time>2014-03-31T09:06:00Z</time>
      </trkpt>
      <trkpt lat="42.97885" lon="-0.42629">
        <ele>606.248535</ele>
        <time>2014-03-31T09:06:20Z</time>
      </trkpt>
      <trkpt lat="42.97884" lon="-0.42635">
        <ele>605.768066</ele>
        <time>2014-03-31T09:06:34Z</time>
      </trkpt>
      <trkpt lat="42.97883" lon="-0.42635">
        <ele>606.248535</ele>
        <time>2014-03-31T09:07:01Z</time>
      </trkpt>
      <trkpt lat="42.97884" lon="-0.42639">
        <ele>606.729248</ele>
        <time>2014-03-31T09:07:18Z</time>
      </trkpt>
      <trkpt lat="42.97881" lon="-0.42653">
        <ele>608.171387</ele>
        <time>2014-03-31T09:08:52Z</time>
      </trkpt>
      <trkpt lat="42.97884" lon="-0.42645">
        <ele>608.651855</ele>
        <time>2014-03-31T09:09:16Z</time>
      </trkpt>
      <trkpt lat="42.97885" lon="-0.42635">
        <ele>608.651855</ele>
        <time>2014-03-31T09:10:24Z</time>
      </trkpt>
      <trkpt lat="42.97883" lon="-0.42641">
        <ele>610.09375</ele>
        <time>2014-03-31T09:11:05Z</time>
      </trkpt>
      <trkpt lat="42.97882" lon="-0.42636">
        <ele>610.09375</ele>
        <time>2014-03-31T09:12:33Z</time>
      </trkpt>
      <trkpt lat="42.97877" lon="-0.42637">
        <ele>611.055176</ele>
        <time>2014-03-31T09:12:48Z</time>
      </trkpt>
      <trkpt lat="42.97868" lon="-0.42638">
        <ele>613.938965</ele>
        <time>2014-03-31T09:13:05Z</time>
      </trkpt>
      <trkpt lat="42.97856" lon="-0.42642">
        <ele>615.381104</ele>
        <time>2014-03-31T09:13:21Z</time>
      </trkpt>
      <trkpt lat="42.97848" lon="-0.42645">
        <ele>616.822998</ele>
        <time>2014-03-31T09:13:36Z</time>
      </trkpt>
      <trkpt lat="42.97838" lon="-0.4265">
        <ele>620.187744</ele>
        <time>2014-03-31T09:13:49Z</time>
      </trkpt>
      <trkpt lat="42.97824" lon="-0.42657">
        <ele>622.110352</ele>
        <time>2014-03-31T09:14:08Z</time>
      </trkpt>
      <trkpt lat="42.9781" lon="-0.42663">
        <ele>624.513672</ele>
        <time>2014-03-31T09:14:26Z</time>
      </trkpt>
      <trkpt lat="42.97797" lon="-0.42664">
        <ele>627.878174</ele>
        <time>2014-03-31T09:14:39Z</time>
      </trkpt>
      <trkpt lat="42.97788" lon="-0.42669">
        <ele>630.762207</ele>
        <time>2014-03-31T09:14:53Z</time>
      </trkpt>
      <trkpt lat="42.97785" lon="-0.42676">
        <ele>631.24292</ele>
        <time>2014-03-31T09:14:58Z</time>
      </trkpt>
      <trkpt lat="42.97769" lon="-0.42695">
        <ele>630.281494</ele>
        <time>2014-03-31T09:15:14Z</time>
      </trkpt>
      <trkpt lat="42.97762" lon="-0.42694">
        <ele>630.281494</ele>
        <time>2014-03-31T09:15:18Z</time>
      </trkpt>
      <trkpt lat="42.97754" lon="-0.42715">
        <ele>627.397705</ele>
        <time>2014-03-31T09:15:36Z</time>
      </trkpt>
      <trkpt lat="42.97745" lon="-0.42746">
        <ele>624.513672</ele>
        <time>2014-03-31T09:15:58Z</time>
      </trkpt>
      <trkpt lat="42.97742" lon="-0.42761">
        <ele>623.071777</ele>
        <time>2014-03-31T09:16:17Z</time>
      </trkpt>
      <trkpt lat="42.97742" lon="-0.42765">
        <ele>623.55249</ele>
        <time>2014-03-31T09:16:41Z</time>
      </trkpt>
      <trkpt lat="42.97733" lon="-0.42788">
        <ele>621.629639</ele>
        <time>2014-03-31T09:16:57Z</time>
      </trkpt>
      <trkpt lat="42.97721" lon="-0.42821">
        <ele>619.707031</ele>
        <time>2014-03-31T09:17:20Z</time>
      </trkpt>
      <trkpt lat="42.97706" lon="-0.4285">
        <ele>617.303711</ele>
        <time>2014-03-31T09:17:43Z</time>
      </trkpt>
      <trkpt lat="42.97684" lon="-0.42876">
        <ele>615.861816</ele>
        <time>2014-03-31T09:18:09Z</time>
      </trkpt>
      <trkpt lat="42.97668" lon="-0.429">
        <ele>615.861816</ele>
        <time>2014-03-31T09:18:30Z</time>
      </trkpt>
      <trkpt lat="42.97647" lon="-0.42926">
        <ele>615.381104</ele>
        <time>2014-03-31T09:18:55Z</time>
      </trkpt>
      <trkpt lat="42.97625" lon="-0.4295">
        <ele>614.900391</ele>
        <time>2014-03-31T09:19:20Z</time>
      </trkpt>
      <trkpt lat="42.97612" lon="-0.42964">
        <ele>613.938965</ele>
        <time>2014-03-31T09:19:38Z</time>
      </trkpt>
      <trkpt lat="42.97605" lon="-0.42972">
        <ele>613.458496</ele>
        <time>2014-03-31T09:20:01Z</time>
      </trkpt>
      <trkpt lat="42.97589" lon="-0.4299">
        <ele>612.016602</ele>
        <time>2014-03-31T09:20:19Z</time>
      </trkpt>
      <trkpt lat="42.97579" lon="-0.42998">
        <ele>612.49707</ele>
        <time>2014-03-31T09:20:30Z</time>
      </trkpt>
      <trkpt lat="42.97571" lon="-0.43008">
        <ele>612.016602</ele>
        <time>2014-03-31T09:20:38Z</time>
      </trkpt>
      <trkpt lat="42.97568" lon="-0.43013">
        <ele>612.016602</ele>
        <time>2014-03-31T09:20:42Z</time>
      </trkpt>
      <trkpt lat="42.97561" lon="-0.43023">
        <ele>611.535889</ele>
        <time>2014-03-31T09:20:54Z</time>
      </trkpt>
      <trkpt lat="42.97537" lon="-0.43049">
        <ele>609.132568</ele>
        <time>2014-03-31T09:21:18Z</time>
      </trkpt>
      <trkpt lat="42.97512" lon="-0.43075">
        <ele>607.690674</ele>
        <time>2014-03-31T09:21:43Z</time>
      </trkpt>
      <trkpt lat="42.97508" lon="-0.43084">
        <ele>607.209961</ele>
        <time>2014-03-31T09:21:49Z</time>
      </trkpt>
      <trkpt lat="42.97509" lon="-0.43088">
        <ele>607.209961</ele>
        <time>2014-03-31T09:22:01Z</time>
      </trkpt>
      <trkpt lat="42.97509" lon="-0.43089">
        <ele>606.729248</ele>
        <time>2014-03-31T09:22:24Z</time>
      </trkpt>
      <trkpt lat="42.97509" lon="-0.4309">
        <ele>608.171387</ele>
        <time>2014-03-31T09:22:46Z</time>
      </trkpt>
      <trkpt lat="42.97509" lon="-0.43087">
        <ele>607.209961</ele>
        <time>2014-03-31T09:23:24Z</time>
      </trkpt>
      <trkpt lat="42.97509" lon="-0.43088">
        <ele>608.651855</ele>
        <time>2014-03-31T09:23:47Z</time>
      </trkpt>
      <trkpt lat="42.97509" lon="-0.43088">
        <ele>607.690674</ele>
        <time>2014-03-31T09:23:50Z</time>
      </trkpt>
      <trkpt lat="42.97507" lon="-0.43089">
        <ele>607.690674</ele>
        <time>2014-03-31T09:24:24Z</time>
      </trkpt>
      <trkpt lat="42.97506" lon="-0.43089">
        <ele>608.171387</ele>
        <time>2014-03-31T09:24:34Z</time>
      </trkpt>
      <trkpt lat="42.97504" lon="-0.43093">
        <ele>608.171387</ele>
        <time>2014-03-31T09:24:38Z</time>
      </trkpt>
      <trkpt lat="42.97498" lon="-0.43105">
        <ele>607.209961</ele>
        <time>2014-03-31T09:24:48Z</time>
      </trkpt>
      <trkpt lat="42.97479" lon="-0.43125">
        <ele>606.729248</ele>
        <time>2014-03-31T09:25:10Z</time>
      </trkpt>
      <trkpt lat="42.97461" lon="-0.43155">
        <ele>604.326172</ele>
        <time>2014-03-31T09:25:34Z</time>
      </trkpt>
      <trkpt lat="42.97447" lon="-0.43181">
        <ele>602.403076</ele>
        <time>2014-03-31T09:25:55Z</time>
      </trkpt>
      <trkpt lat="42.97432" lon="-0.43199">
        <ele>601.922607</ele>
        <time>2014-03-31T09:26:19Z</time>
      </trkpt>
      <trkpt lat="42.97433" lon="-0.43196">
        <ele>601.441895</ele>
        <time>2014-03-31T09:26:32Z</time>
      </trkpt>
      <trkpt lat="42.97434" lon="-0.43196">
        <ele>601.922607</ele>
        <time>2014-03-31T09:26:55Z</time>
      </trkpt>
      <trkpt lat="42.97433" lon="-0.43198">
        <ele>600.961182</ele>
        <time>2014-03-31T09:27:56Z</time>
      </trkpt>
      <trkpt lat="42.97435" lon="-0.43195">
        <ele>600.961182</ele>
        <time>2014-03-31T09:28:10Z</time>
      </trkpt>
      <trkpt lat="42.97431" lon="-0.43199">
        <ele>600.961182</ele>
        <time>2014-03-31T09:28:46Z</time>
      </trkpt>
      <trkpt lat="42.97431" lon="-0.43198">
        <ele>600.961182</ele>
        <time>2014-03-31T09:28:57Z</time>
      </trkpt>
      <trkpt lat="42.97432" lon="-0.43198">
        <ele>600.961182</ele>
        <time>2014-03-31T09:29:17Z</time>
      </trkpt>
      <trkpt lat="42.97432" lon="-0.43199">
        <ele>600.961182</ele>
        <time>2014-03-31T09:29:33Z</time>
      </trkpt>
      <trkpt lat="42.97432" lon="-0.43199">
        <ele>601.441895</ele>
        <time>2014-03-31T09:29:43Z</time>
      </trkpt>
      <trkpt lat="42.97432" lon="-0.43199">
        <ele>600.480713</ele>
        <time>2014-03-31T09:29:56Z</time>
      </trkpt>
      <trkpt lat="42.97434" lon="-0.432">
        <ele>600</ele>
        <time>2014-03-31T09:31:23Z</time>
      </trkpt>
      <trkpt lat="42.97433" lon="-0.432">
        <ele>600.480713</ele>
        <time>2014-03-31T09:31:36Z</time>
      </trkpt>
      <trkpt lat="42.97432" lon="-0.43199">
        <ele>600</ele>
        <time>2014-03-31T09:31:52Z</time>
      </trkpt>
      <trkpt lat="42.97436" lon="-0.43197">
        <ele>600.480713</ele>
        <time>2014-03-31T09:32:14Z</time>
      </trkpt>
      <trkpt lat="42.97433" lon="-0.43199">
        <ele>599.519287</ele>
        <time>2014-03-31T09:32:37Z</time>
      </trkpt>
      <trkpt lat="42.97433" lon="-0.43199">
        <ele>600</ele>
        <time>2014-03-31T09:32:46Z</time>
      </trkpt>
      <trkpt lat="42.97424" lon="-0.43213">
        <ele>599.519287</ele>
        <time>2014-03-31T09:32:59Z</time>
      </trkpt>
      <trkpt lat="42.97424" lon="-0.43216">
        <ele>599.038574</ele>
        <time>2014-03-31T09:33:01Z</time>
      </trkpt>
      <trkpt lat="42.9742" lon="-0.4323">
        <ele>599.519287</ele>
        <time>2014-03-31T09:33:15Z</time>
      </trkpt>
      <trkpt lat="42.97421" lon="-0.43232">
        <ele>599.038574</ele>
        <time>2014-03-31T09:33:29Z</time>
      </trkpt>
      <trkpt lat="42.9742" lon="-0.43232">
        <ele>599.519287</ele>
        <time>2014-03-31T09:33:57Z</time>
      </trkpt>
      <trkpt lat="42.9742" lon="-0.43233">
        <ele>599.519287</ele>
        <time>2014-03-31T09:34:40Z</time>
      </trkpt>
      <trkpt lat="42.9742" lon="-0.43232">
        <ele>599.519287</ele>
        <time>2014-03-31T09:35:41Z</time>
      </trkpt>
      <trkpt lat="42.97421" lon="-0.43231">
        <ele>598.557861</ele>
        <time>2014-03-31T09:36:23Z</time>
      </trkpt>
      <trkpt lat="42.97421" lon="-0.43232">
        <ele>599.038574</ele>
        <time>2014-03-31T09:37:32Z</time>
      </trkpt>
      <trkpt lat="42.9742" lon="-0.43228">
        <ele>598.557861</ele>
        <time>2014-03-31T09:37:58Z</time>
      </trkpt>
      <trkpt lat="42.97415" lon="-0.43242">
        <ele>600</ele>
        <time>2014-03-31T09:38:26Z</time>
      </trkpt>
      <trkpt lat="42.97414" lon="-0.43243">
        <ele>600.961182</ele>
        <time>2014-03-31T09:38:27Z</time>
      </trkpt>
      <trkpt lat="42.97405" lon="-0.43261">
        <ele>602.883789</ele>
        <time>2014-03-31T09:38:43Z</time>
      </trkpt>
      <trkpt lat="42.97395" lon="-0.43274">
        <ele>603.364502</ele>
        <time>2014-03-31T09:38:57Z</time>
      </trkpt>
      <trkpt lat="42.97389" lon="-0.43282">
        <ele>602.403076</ele>
        <time>2014-03-31T09:39:12Z</time>
      </trkpt>
      <trkpt lat="42.97388" lon="-0.43283">
        <ele>602.883789</ele>
        <time>2014-03-31T09:39:34Z</time>
      </trkpt>
      <trkpt lat="42.97388" lon="-0.43283">
        <ele>603.364502</ele>
        <time>2014-03-31T09:40:47Z</time>
      </trkpt>
      <trkpt lat="42.97384" lon="-0.43271">
        <ele>603.364502</ele>
        <time>2014-03-31T09:41:22Z</time>
      </trkpt>
      <trkpt lat="42.97386" lon="-0.43278">
        <ele>603.845215</ele>
        <time>2014-03-31T09:41:49Z</time>
      </trkpt>
      <trkpt lat="42.97385" lon="-0.43285">
        <ele>603.364502</ele>
        <time>2014-03-31T09:42:26Z</time>
      </trkpt>
      <trkpt lat="42.97382" lon="-0.43298">
        <ele>603.364502</ele>
        <time>2014-03-31T09:42:44Z</time>
      </trkpt>
      <trkpt lat="42.97378" lon="-0.4332">
        <ele>604.806641</ele>
        <time>2014-03-31T09:43:01Z</time>
      </trkpt>
      <trkpt lat="42.97377" lon="-0.43328">
        <ele>607.690674</ele>
        <time>2014-03-31T09:43:08Z</time>
      </trkpt>
      <trkpt lat="42.97381" lon="-0.43335">
        <ele>609.613281</ele>
        <time>2014-03-31T09:43:21Z</time>
      </trkpt>
      <trkpt lat="42.97381" lon="-0.4335">
        <ele>612.49707</ele>
        <time>2014-03-31T09:43:35Z</time>
      </trkpt>
      <trkpt lat="42.97373" lon="-0.43378">
        <ele>616.342285</ele>
        <time>2014-03-31T09:43:56Z</time>
      </trkpt>
      <trkpt lat="42.9737" lon="-0.43392">
        <ele>615.381104</ele>
        <time>2014-03-31T09:44:08Z</time>
      </trkpt>
      <trkpt lat="42.97368" lon="-0.43399">
        <ele>612.016602</ele>
        <time>2014-03-31T09:44:13Z</time>
      </trkpt>
      <trkpt lat="42.97362" lon="-0.43419">
        <ele>612.49707</ele>
        <time>2014-03-31T09:44:27Z</time>
      </trkpt>
      <trkpt lat="42.97357" lon="-0.4343">
        <ele>611.535889</ele>
        <time>2014-03-31T09:44:37Z</time>
      </trkpt>
      <trkpt lat="42.97345" lon="-0.4344">
        <ele>609.132568</ele>
        <time>2014-03-31T09:44:49Z</time>
      </trkpt>
      <trkpt lat="42.97343" lon="-0.43443">
        <ele>609.132568</ele>
        <time>2014-03-31T09:44:52Z</time>
      </trkpt>
      <trkpt lat="42.97342" lon="-0.43446">
        <ele>609.132568</ele>
        <time>2014-03-31T09:44:54Z</time>
      </trkpt>
      <trkpt lat="42.97329" lon="-0.43457">
        <ele>607.690674</ele>
        <time>2014-03-31T09:45:09Z</time>
      </trkpt>
      <trkpt lat="42.97325" lon="-0.43464">
        <ele>607.209961</ele>
        <time>2014-03-31T09:45:15Z</time>
      </trkpt>
      <trkpt lat="42.97323" lon="-0.43466">
        <ele>607.209961</ele>
        <time>2014-03-31T09:45:18Z</time>
      </trkpt>
      <trkpt lat="42.97318" lon="-0.43481">
        <ele>608.651855</ele>
        <time>2014-03-31T09:45:33Z</time>
      </trkpt>
      <trkpt lat="42.97319" lon="-0.43482">
        <ele>608.651855</ele>
        <time>2014-03-31T09:45:47Z</time>
      </trkpt>
      <trkpt lat="42.97315" lon="-0.43487">
        <ele>607.690674</ele>
        <time>2014-03-31T09:46:13Z</time>
      </trkpt>
      <trkpt lat="42.97315" lon="-0.4349">
        <ele>609.132568</ele>
        <time>2014-03-31T09:46:29Z</time>
      </trkpt>
      <trkpt lat="42.97316" lon="-0.43486">
        <ele>608.651855</ele>
        <time>2014-03-31T09:46:45Z</time>
      </trkpt>
      <trkpt lat="42.97311" lon="-0.43486">
        <ele>608.651855</ele>
        <time>2014-03-31T09:48:00Z</time>
      </trkpt>
      <trkpt lat="42.97311" lon="-0.43483">
        <ele>611.535889</ele>
        <time>2014-03-31T09:48:25Z</time>
      </trkpt>
      <trkpt lat="42.97313" lon="-0.43483">
        <ele>610.09375</ele>
        <time>2014-03-31T09:48:43Z</time>
      </trkpt>
      <trkpt lat="42.97316" lon="-0.43479">
        <ele>609.613281</ele>
        <time>2014-03-31T09:49:20Z</time>
      </trkpt>
      <trkpt lat="42.97313" lon="-0.43477">
        <ele>610.09375</ele>
        <time>2014-03-31T09:49:48Z</time>
      </trkpt>
      <trkpt lat="42.97316" lon="-0.43481">
        <ele>611.055176</ele>
        <time>2014-03-31T09:50:14Z</time>
      </trkpt>
      <trkpt lat="42.97315" lon="-0.43484">
        <ele>611.055176</ele>
        <time>2014-03-31T09:50:33Z</time>
      </trkpt>
      <trkpt lat="42.97311" lon="-0.43491">
        <ele>611.535889</ele>
        <time>2014-03-31T09:50:48Z</time>
      </trkpt>
      <trkpt lat="42.97309" lon="-0.43495">
        <ele>611.055176</ele>
        <time>2014-03-31T09:50:53Z</time>
      </trkpt>
      <trkpt lat="42.97302" lon="-0.43505">
        <ele>609.613281</ele>
        <time>2014-03-31T09:51:07Z</time>
      </trkpt>
      <trkpt lat="42.97293" lon="-0.43511">
        <ele>612.016602</ele>
        <time>2014-03-31T09:51:20Z</time>
      </trkpt>
      <trkpt lat="42.97284" lon="-0.4352">
        <ele>610.574463</ele>
        <time>2014-03-31T09:51:34Z</time>
      </trkpt>
      <trkpt lat="42.97281" lon="-0.43522">
        <ele>610.09375</ele>
        <time>2014-03-31T09:51:37Z</time>
      </trkpt>
      <trkpt lat="42.97284" lon="-0.43537">
        <ele>612.977783</ele>
        <time>2014-03-31T09:51:50Z</time>
      </trkpt>
      <trkpt lat="42.97277" lon="-0.43546">
        <ele>616.342285</ele>
        <time>2014-03-31T09:52:03Z</time>
      </trkpt>
      <trkpt lat="42.97274" lon="-0.43552">
        <ele>616.342285</ele>
        <time>2014-03-31T09:52:08Z</time>
      </trkpt>
      <trkpt lat="42.97262" lon="-0.43563">
        <ele>616.822998</ele>
        <time>2014-03-31T09:52:21Z</time>
      </trkpt>
      <trkpt lat="42.97252" lon="-0.43568">
        <ele>615.381104</ele>
        <time>2014-03-31T09:52:34Z</time>
      </trkpt>
      <trkpt lat="42.97242" lon="-0.43576">
        <ele>612.977783</ele>
        <time>2014-03-31T09:52:49Z</time>
      </trkpt>
      <trkpt lat="42.97237" lon="-0.43581">
        <ele>613.938965</ele>
        <time>2014-03-31T09:52:56Z</time>
      </trkpt>
      <trkpt lat="42.97227" lon="-0.43587">
        <ele>614.900391</ele>
        <time>2014-03-31T09:53:08Z</time>
      </trkpt>
      <trkpt lat="42.97221" lon="-0.43593">
        <ele>613.938965</ele>
        <time>2014-03-31T09:53:17Z</time>
      </trkpt>
      <trkpt lat="42.97212" lon="-0.43602">
        <ele>613.938965</ele>
        <time>2014-03-31T09:53:28Z</time>
      </trkpt>
      <trkpt lat="42.97206" lon="-0.43606">
        <ele>613.458496</ele>
        <time>2014-03-31T09:53:33Z</time>
      </trkpt>
      <trkpt lat="42.97203" lon="-0.43613">
        <ele>613.938965</ele>
        <time>2014-03-31T09:53:41Z</time>
      </trkpt>
      <trkpt lat="42.97203" lon="-0.43613">
        <ele>614.900391</ele>
        <time>2014-03-31T09:53:43Z</time>
      </trkpt>
      <trkpt lat="42.97195" lon="-0.43622">
        <ele>617.303711</ele>
        <time>2014-03-31T09:53:57Z</time>
      </trkpt>
      <trkpt lat="42.97193" lon="-0.43623">
        <ele>618.264893</ele>
        <time>2014-03-31T09:53:59Z</time>
      </trkpt>
      <trkpt lat="42.97187" lon="-0.43628">
        <ele>620.668457</ele>
        <time>2014-03-31T09:54:06Z</time>
      </trkpt>
      <trkpt lat="42.97187" lon="-0.43629">
        <ele>620.668457</ele>
        <time>2014-03-31T09:54:07Z</time>
      </trkpt>
      <trkpt lat="42.97178" lon="-0.43641">
        <ele>622.591064</ele>
        <time>2014-03-31T09:54:23Z</time>
      </trkpt>
      <trkpt lat="42.97185" lon="-0.43644">
        <ele>625.955566</ele>
        <time>2014-03-31T09:54:32Z</time>
      </trkpt>
      <trkpt lat="42.9719" lon="-0.43653">
        <ele>628.358887</ele>
        <time>2014-03-31T09:54:47Z</time>
      </trkpt>
      <trkpt lat="42.9719" lon="-0.43656">
        <ele>631.24292</ele>
        <time>2014-03-31T09:54:59Z</time>
      </trkpt>
      <trkpt lat="42.97187" lon="-0.43658">
        <ele>632.204102</ele>
        <time>2014-03-31T09:55:06Z</time>
      </trkpt>
      <trkpt lat="42.97182" lon="-0.4366">
        <ele>633.165283</ele>
        <time>2014-03-31T09:55:11Z</time>
      </trkpt>
      <trkpt lat="42.97173" lon="-0.43672">
        <ele>634.126709</ele>
        <time>2014-03-31T09:55:26Z</time>
      </trkpt>
      <trkpt lat="42.97169" lon="-0.43676">
        <ele>636.049561</ele>
        <time>2014-03-31T09:55:39Z</time>
      </trkpt>
      <trkpt lat="42.97178" lon="-0.43683">
        <ele>637.491455</ele>
        <time>2014-03-31T09:55:55Z</time>
      </trkpt>
      <trkpt lat="42.97181" lon="-0.43685">
        <ele>637.010742</ele>
        <time>2014-03-31T09:56:15Z</time>
      </trkpt>
      <trkpt lat="42.97184" lon="-0.43689">
        <ele>638.452881</ele>
        <time>2014-03-31T09:56:46Z</time>
      </trkpt>
      <trkpt lat="42.97186" lon="-0.43688">
        <ele>637.972168</ele>
        <time>2014-03-31T09:57:04Z</time>
      </trkpt>
      <trkpt lat="42.97183" lon="-0.43683">
        <ele>638.933594</ele>
        <time>2014-03-31T09:58:19Z</time>
      </trkpt>
      <trkpt lat="42.97184" lon="-0.43688">
        <ele>637.491455</ele>
        <time>2014-03-31T09:59:12Z</time>
      </trkpt>
      <trkpt lat="42.9718" lon="-0.43685">
        <ele>638.452881</ele>
        <time>2014-03-31T09:59:57Z</time>
      </trkpt>
      <trkpt lat="42.97185" lon="-0.43691">
        <ele>638.452881</ele>
        <time>2014-03-31T10:00:12Z</time>
      </trkpt>
      <trkpt lat="42.97184" lon="-0.43697">
        <ele>637.491455</ele>
        <time>2014-03-31T10:00:42Z</time>
      </trkpt>
      <trkpt lat="42.97182" lon="-0.43692">
        <ele>638.452881</ele>
        <time>2014-03-31T10:01:01Z</time>
      </trkpt>
      <trkpt lat="42.97184" lon="-0.43685">
        <ele>638.933594</ele>
        <time>2014-03-31T10:01:18Z</time>
      </trkpt>
      <trkpt lat="42.97188" lon="-0.43684">
        <ele>640.855957</ele>
        <time>2014-03-31T10:01:33Z</time>
      </trkpt>
      <trkpt lat="42.97188" lon="-0.43685">
        <ele>641.817383</ele>
        <time>2014-03-31T10:01:43Z</time>
      </trkpt>
      <trkpt lat="42.97185" lon="-0.43684">
        <ele>642.298096</ele>
        <time>2014-03-31T10:01:47Z</time>
      </trkpt>
      <trkpt lat="42.9718" lon="-0.43686">
        <ele>642.778809</ele>
        <time>2014-03-31T10:01:52Z</time>
      </trkpt>
      <trkpt lat="42.9717" lon="-0.43693">
        <ele>645.662598</ele>
        <time>2014-03-31T10:02:06Z</time>
      </trkpt>
      <trkpt lat="42.97155" lon="-0.43702">
        <ele>646.624023</ele>
        <time>2014-03-31T10:02:22Z</time>
      </trkpt>
      <trkpt lat="42.97145" lon="-0.43711">
        <ele>645.181885</ele>
        <time>2014-03-31T10:02:34Z</time>
      </trkpt>
      <trkpt lat="42.97134" lon="-0.43732">
        <ele>645.662598</ele>
        <time>2014-03-31T10:02:53Z</time>
      </trkpt>
      <trkpt lat="42.97127" lon="-0.43743">
        <ele>644.220703</ele>
        <time>2014-03-31T10:03:06Z</time>
      </trkpt>
      <trkpt lat="42.97124" lon="-0.43746">
        <ele>642.298096</ele>
        <time>2014-03-31T10:03:11Z</time>
      </trkpt>
      <trkpt lat="42.97125" lon="-0.43743">
        <ele>640.375488</ele>
        <time>2014-03-31T10:03:24Z</time>
      </trkpt>
      <trkpt lat="42.97114" lon="-0.43744">
        <ele>638.933594</ele>
        <time>2014-03-31T10:03:40Z</time>
      </trkpt>
      <trkpt lat="42.97113" lon="-0.43744">
        <ele>637.972168</ele>
        <time>2014-03-31T10:03:42Z</time>
      </trkpt>
      <trkpt lat="42.9711" lon="-0.43746">
        <ele>637.010742</ele>
        <time>2014-03-31T10:03:47Z</time>
      </trkpt>
      <trkpt lat="42.97104" lon="-0.4375">
        <ele>635.088135</ele>
        <time>2014-03-31T10:03:53Z</time>
      </trkpt>
      <trkpt lat="42.97092" lon="-0.43761">
        <ele>632.204102</ele>
        <time>2014-03-31T10:04:10Z</time>
      </trkpt>
      <trkpt lat="42.97092" lon="-0.43761">
        <ele>631.24292</ele>
        <time>2014-03-31T10:04:16Z</time>
      </trkpt>
      <trkpt lat="42.97094" lon="-0.43757">
        <ele>630.281494</ele>
        <time>2014-03-31T10:04:21Z</time>
      </trkpt>
      <trkpt lat="42.971" lon="-0.43748">
        <ele>627.878174</ele>
        <time>2014-03-31T10:04:38Z</time>
      </trkpt>
      <trkpt lat="42.97093" lon="-0.43748">
        <ele>626.916992</ele>
        <time>2014-03-31T10:04:53Z</time>
      </trkpt>
      <trkpt lat="42.97091" lon="-0.43747">
        <ele>626.916992</ele>
        <time>2014-03-31T10:04:55Z</time>
      </trkpt>
      <trkpt lat="42.97092" lon="-0.43751">
        <ele>625.955566</ele>
        <time>2014-03-31T10:05:15Z</time>
      </trkpt>
      <trkpt lat="42.97091" lon="-0.43753">
        <ele>624.994385</ele>
        <time>2014-03-31T10:05:19Z</time>
      </trkpt>
      <trkpt lat="42.97082" lon="-0.43773">
        <ele>622.591064</ele>
        <time>2014-03-31T10:05:36Z</time>
      </trkpt>
      <trkpt lat="42.97074" lon="-0.43786">
        <ele>620.187744</ele>
        <time>2014-03-31T10:05:52Z</time>
      </trkpt>
      <trkpt lat="42.97068" lon="-0.43787">
        <ele>620.187744</ele>
        <time>2014-03-31T10:06:24Z</time>
      </trkpt>
      <trkpt lat="42.97067" lon="-0.43794">
        <ele>617.303711</ele>
        <time>2014-03-31T10:06:33Z</time>
      </trkpt>
      <trkpt lat="42.97064" lon="-0.438">
        <ele>616.822998</ele>
        <time>2014-03-31T10:06:50Z</time>
      </trkpt>
      <trkpt lat="42.97062" lon="-0.43804">
        <ele>616.822998</ele>
        <time>2014-03-31T10:07:00Z</time>
      </trkpt>
      <trkpt lat="42.97062" lon="-0.43809">
        <ele>615.861816</ele>
        <time>2014-03-31T10:07:13Z</time>
      </trkpt>
      <trkpt lat="42.97057" lon="-0.43808">
        <ele>618.264893</ele>
        <time>2014-03-31T10:07:25Z</time>
      </trkpt>
      <trkpt lat="42.97052" lon="-0.43811">
        <ele>618.264893</ele>
        <time>2014-03-31T10:07:53Z</time>
      </trkpt>
      <trkpt lat="42.97033" lon="-0.4382">
        <ele>618.745605</ele>
        <time>2014-03-31T10:08:12Z</time>
      </trkpt>
      <trkpt lat="42.97024" lon="-0.43826">
        <ele>614.900391</ele>
        <time>2014-03-31T10:08:26Z</time>
      </trkpt>
      <trkpt lat="42.97009" lon="-0.43829">
        <ele>615.861816</ele>
        <time>2014-03-31T10:08:40Z</time>
      </trkpt>
      <trkpt lat="42.97002" lon="-0.4383">
        <ele>616.342285</ele>
        <time>2014-03-31T10:08:46Z</time>
      </trkpt>
      <trkpt lat="42.96996" lon="-0.43833">
        <ele>615.861816</ele>
        <time>2014-03-31T10:08:52Z</time>
      </trkpt>
      <trkpt lat="42.96992" lon="-0.43834">
        <ele>614.900391</ele>
        <time>2014-03-31T10:08:57Z</time>
      </trkpt>
      <trkpt lat="42.96986" lon="-0.4384">
        <ele>614.900391</ele>
        <time>2014-03-31T10:09:04Z</time>
      </trkpt>
      <trkpt lat="42.96982" lon="-0.43849">
        <ele>615.381104</ele>
        <time>2014-03-31T10:09:12Z</time>
      </trkpt>
      <trkpt lat="42.96975" lon="-0.43855">
        <ele>613.938965</ele>
        <time>2014-03-31T10:09:24Z</time>
      </trkpt>
      <trkpt lat="42.9697" lon="-0.43861">
        <ele>613.938965</ele>
        <time>2014-03-31T10:09:31Z</time>
      </trkpt>
      <trkpt lat="42.96963" lon="-0.43863">
        <ele>613.458496</ele>
        <time>2014-03-31T10:09:39Z</time>
      </trkpt>
      <trkpt lat="42.9696" lon="-0.43871">
        <ele>613.458496</ele>
        <time>2014-03-31T10:09:57Z</time>
      </trkpt>
      <trkpt lat="42.96965" lon="-0.43883">
        <ele>612.49707</ele>
        <time>2014-03-31T10:10:15Z</time>
      </trkpt>
      <trkpt lat="42.96971" lon="-0.4388">
        <ele>611.535889</ele>
        <time>2014-03-31T10:10:42Z</time>
      </trkpt>
      <trkpt lat="42.96972" lon="-0.43873">
        <ele>610.09375</ele>
        <time>2014-03-31T10:11:01Z</time>
      </trkpt>
      <trkpt lat="42.96966" lon="-0.43871">
        <ele>609.613281</ele>
        <time>2014-03-31T10:12:04Z</time>
      </trkpt>
      <trkpt lat="42.96965" lon="-0.43867">
        <ele>609.613281</ele>
        <time>2014-03-31T10:13:43Z</time>
      </trkpt>
      <trkpt lat="42.96959" lon="-0.43874">
        <ele>609.132568</ele>
        <time>2014-03-31T10:13:55Z</time>
      </trkpt>
      <trkpt lat="42.96958" lon="-0.43872">
        <ele>608.651855</ele>
        <time>2014-03-31T10:13:57Z</time>
      </trkpt>
      <trkpt lat="42.96949" lon="-0.43865">
        <ele>608.171387</ele>
        <time>2014-03-31T10:14:12Z</time>
      </trkpt>
      <trkpt lat="42.96948" lon="-0.43863">
        <ele>608.651855</ele>
        <time>2014-03-31T10:14:14Z</time>
      </trkpt>
      <trkpt lat="42.96946" lon="-0.4386">
        <ele>608.651855</ele>
        <time>2014-03-31T10:14:30Z</time>
      </trkpt>
      <trkpt lat="42.96942" lon="-0.43848">
        <ele>609.613281</ele>
        <time>2014-03-31T10:14:53Z</time>
      </trkpt>
      <trkpt lat="42.96942" lon="-0.43851">
        <ele>608.171387</ele>
        <time>2014-03-31T10:15:25Z</time>
      </trkpt>
      <trkpt lat="42.9694" lon="-0.43846">
        <ele>609.613281</ele>
        <time>2014-03-31T10:16:55Z</time>
      </trkpt>
      <trkpt lat="42.96937" lon="-0.43828">
        <ele>611.055176</ele>
        <time>2014-03-31T10:17:11Z</time>
      </trkpt>
      <trkpt lat="42.96938" lon="-0.43822">
        <ele>612.49707</ele>
        <time>2014-03-31T10:17:15Z</time>
      </trkpt>
      <trkpt lat="42.96939" lon="-0.43814">
        <ele>612.977783</ele>
        <time>2014-03-31T10:17:21Z</time>
      </trkpt>
      <trkpt lat="42.96953" lon="-0.438">
        <ele>616.342285</ele>
        <time>2014-03-31T10:17:41Z</time>
      </trkpt>
      <trkpt lat="42.96959" lon="-0.43791">
        <ele>617.78418</ele>
        <time>2014-03-31T10:17:56Z</time>
      </trkpt>
      <trkpt lat="42.96964" lon="-0.43786">
        <ele>618.745605</ele>
        <time>2014-03-31T10:18:15Z</time>
      </trkpt>
      <trkpt lat="42.96966" lon="-0.43784">
        <ele>618.745605</ele>
        <time>2014-03-31T10:18:28Z</time>
      </trkpt>
      <trkpt lat="42.96964" lon="-0.43784">
        <ele>617.78418</ele>
        <time>2014-03-31T10:22:01Z</time>
      </trkpt>
      <trkpt lat="42.96965" lon="-0.43782">
        <ele>616.342285</ele>
        <time>2014-03-31T10:29:13Z</time>
      </trkpt>
      <trkpt lat="42.96965" lon="-0.43782">
        <ele>616.822998</ele>
        <time>2014-03-31T10:29:22Z</time>
      </trkpt>
      <trkpt lat="42.96957" lon="-0.43769">
        <ele>618.745605</ele>
        <time>2014-03-31T10:29:39Z</time>
      </trkpt>
      <trkpt lat="42.96956" lon="-0.43769">
        <ele>619.226318</ele>
        <time>2014-03-31T10:29:40Z</time>
      </trkpt>
      <trkpt lat="42.96949" lon="-0.43769">
        <ele>622.591064</ele>
        <time>2014-03-31T10:29:48Z</time>
      </trkpt>
      <trkpt lat="42.96949" lon="-0.43765">
        <ele>624.513672</ele>
        <time>2014-03-31T10:29:54Z</time>
      </trkpt>
      <trkpt lat="42.96956" lon="-0.43753">
        <ele>626.436279</ele>
        <time>2014-03-31T10:30:08Z</time>
      </trkpt>
      <trkpt lat="42.96965" lon="-0.43747">
        <ele>628.358887</ele>
        <time>2014-03-31T10:30:22Z</time>
      </trkpt>
      <trkpt lat="42.96968" lon="-0.43743">
        <ele>629.800781</ele>
        <time>2014-03-31T10:30:26Z</time>
      </trkpt>
      <trkpt lat="42.96973" lon="-0.43729">
        <ele>633.165283</ele>
        <time>2014-03-31T10:30:42Z</time>
      </trkpt>
      <trkpt lat="42.96972" lon="-0.43729">
        <ele>633.645996</ele>
        <time>2014-03-31T10:30:44Z</time>
      </trkpt>
      <trkpt lat="42.96966" lon="-0.43732">
        <ele>636.530273</ele>
        <time>2014-03-31T10:30:57Z</time>
      </trkpt>
      <trkpt lat="42.9696" lon="-0.43734">
        <ele>638.452881</ele>
        <time>2014-03-31T10:31:09Z</time>
      </trkpt>
      <trkpt lat="42.96964" lon="-0.43721">
        <ele>640.375488</ele>
        <time>2014-03-31T10:31:25Z</time>
      </trkpt>
      <trkpt lat="42.96967" lon="-0.43717">
        <ele>641.33667</ele>
        <time>2014-03-31T10:31:36Z</time>
      </trkpt>
      <trkpt lat="42.96971" lon="-0.43712">
        <ele>643.259277</ele>
        <time>2014-03-31T10:31:47Z</time>
      </trkpt>
      <trkpt lat="42.96979" lon="-0.43699">
        <ele>644.701172</ele>
        <time>2014-03-31T10:32:04Z</time>
      </trkpt>
      <trkpt lat="42.96983" lon="-0.43685">
        <ele>646.624023</ele>
        <time>2014-03-31T10:32:17Z</time>
      </trkpt>
      <trkpt lat="42.96984" lon="-0.43679">
        <ele>648.546387</ele>
        <time>2014-03-31T10:32:29Z</time>
      </trkpt>
      <trkpt lat="42.96982" lon="-0.43681">
        <ele>650.949707</ele>
        <time>2014-03-31T10:32:49Z</time>
      </trkpt>
      <trkpt lat="42.96977" lon="-0.43687">
        <ele>651.911133</ele>
        <time>2014-03-31T10:33:08Z</time>
      </trkpt>
      <trkpt lat="42.96968" lon="-0.43694">
        <ele>653.353271</ele>
        <time>2014-03-31T10:34:21Z</time>
      </trkpt>
      <trkpt lat="42.9696" lon="-0.43703">
        <ele>653.833984</ele>
        <time>2014-03-31T10:34:32Z</time>
      </trkpt>
      <trkpt lat="42.96952" lon="-0.43715">
        <ele>652.872559</ele>
        <time>2014-03-31T10:34:48Z</time>
      </trkpt>
      <trkpt lat="42.96952" lon="-0.43725">
        <ele>652.872559</ele>
        <time>2014-03-31T10:35:05Z</time>
      </trkpt>
      <trkpt lat="42.96954" lon="-0.43726">
        <ele>651.911133</ele>
        <time>2014-03-31T10:35:15Z</time>
      </trkpt>
      <trkpt lat="42.96954" lon="-0.43726">
        <ele>653.353271</ele>
        <time>2014-03-31T10:35:17Z</time>
      </trkpt>
      <trkpt lat="42.9695" lon="-0.43724">
        <ele>655.275879</ele>
        <time>2014-03-31T10:35:55Z</time>
      </trkpt>
      <trkpt lat="42.96944" lon="-0.43729">
        <ele>656.237061</ele>
        <time>2014-03-31T10:36:10Z</time>
      </trkpt>
      <trkpt lat="42.96944" lon="-0.43721">
        <ele>655.275879</ele>
        <time>2014-03-31T10:36:29Z</time>
      </trkpt>
      <trkpt lat="42.96943" lon="-0.43722">
        <ele>656.717773</ele>
        <time>2014-03-31T10:36:44Z</time>
      </trkpt>
      <trkpt lat="42.9694" lon="-0.43723">
        <ele>655.275879</ele>
        <time>2014-03-31T10:37:39Z</time>
      </trkpt>
      <trkpt lat="42.96932" lon="-0.43731">
        <ele>657.679199</ele>
        <time>2014-03-31T10:37:55Z</time>
      </trkpt>
      <trkpt lat="42.96925" lon="-0.43738">
        <ele>658.640381</ele>
        <time>2014-03-31T10:38:08Z</time>
      </trkpt>
      <trkpt lat="42.96921" lon="-0.43742">
        <ele>658.159912</ele>
        <time>2014-03-31T10:38:30Z</time>
      </trkpt>
      <trkpt lat="42.96913" lon="-0.43749">
        <ele>658.640381</ele>
        <time>2014-03-31T10:38:54Z</time>
      </trkpt>
      <trkpt lat="42.96904" lon="-0.43757">
        <ele>658.159912</ele>
        <time>2014-03-31T10:39:08Z</time>
      </trkpt>
      <trkpt lat="42.96891" lon="-0.43764">
        <ele>655.756592</ele>
        <time>2014-03-31T10:39:23Z</time>
      </trkpt>
      <trkpt lat="42.9688" lon="-0.43767">
        <ele>653.833984</ele>
        <time>2014-03-31T10:39:38Z</time>
      </trkpt>
      <trkpt lat="42.9687" lon="-0.43768">
        <ele>653.353271</ele>
        <time>2014-03-31T10:39:49Z</time>
      </trkpt>
      <trkpt lat="42.96861" lon="-0.43773">
        <ele>651.911133</ele>
        <time>2014-03-31T10:40:00Z</time>
      </trkpt>
      <trkpt lat="42.96854" lon="-0.43773">
        <ele>653.353271</ele>
        <time>2014-03-31T10:40:19Z</time>
      </trkpt>
      <trkpt lat="42.96849" lon="-0.43771">
        <ele>656.717773</ele>
        <time>2014-03-31T10:40:30Z</time>
      </trkpt>
      <trkpt lat="42.9684" lon="-0.43773">
        <ele>659.121094</ele>
        <time>2014-03-31T10:40:47Z</time>
      </trkpt>
      <trkpt lat="42.96832" lon="-0.43775">
        <ele>659.601807</ele>
        <time>2014-03-31T10:41:00Z</time>
      </trkpt>
      <trkpt lat="42.96825" lon="-0.43772">
        <ele>658.159912</ele>
        <time>2014-03-31T10:41:16Z</time>
      </trkpt>
      <trkpt lat="42.96814" lon="-0.43779">
        <ele>657.679199</ele>
        <time>2014-03-31T10:41:29Z</time>
      </trkpt>
      <trkpt lat="42.96811" lon="-0.4378">
        <ele>657.198486</ele>
        <time>2014-03-31T10:41:32Z</time>
      </trkpt>
      <trkpt lat="42.96807" lon="-0.4378">
        <ele>657.679199</ele>
        <time>2014-03-31T10:41:36Z</time>
      </trkpt>
      <trkpt lat="42.96803" lon="-0.43778">
        <ele>658.159912</ele>
        <time>2014-03-31T10:41:41Z</time>
      </trkpt>
      <trkpt lat="42.96793" lon="-0.43777">
        <ele>657.198486</ele>
        <time>2014-03-31T10:41:51Z</time>
      </trkpt>
      <trkpt lat="42.96784" lon="-0.43778">
        <ele>656.237061</ele>
        <time>2014-03-31T10:42:03Z</time>
      </trkpt>
      <trkpt lat="42.96771" lon="-0.43792">
        <ele>655.756592</ele>
        <time>2014-03-31T10:42:18Z</time>
      </trkpt>
      <trkpt lat="42.96769" lon="-0.43794">
        <ele>656.237061</ele>
        <time>2014-03-31T10:42:20Z</time>
      </trkpt>
      <trkpt lat="42.96759" lon="-0.43806">
        <ele>655.756592</ele>
        <time>2014-03-31T10:42:34Z</time>
      </trkpt>
      <trkpt lat="42.96756" lon="-0.43805">
        <ele>655.275879</ele>
        <time>2014-03-31T10:42:37Z</time>
      </trkpt>
      <trkpt lat="42.96747" lon="-0.43804">
        <ele>656.237061</ele>
        <time>2014-03-31T10:42:47Z</time>
      </trkpt>
      <trkpt lat="42.96732" lon="-0.43813">
        <ele>655.756592</ele>
        <time>2014-03-31T10:43:00Z</time>
      </trkpt>
      <trkpt lat="42.96731" lon="-0.43814">
        <ele>655.275879</ele>
        <time>2014-03-31T10:43:01Z</time>
      </trkpt>
      <trkpt lat="42.96727" lon="-0.43814">
        <ele>656.237061</ele>
        <time>2014-03-31T10:43:05Z</time>
      </trkpt>
      <trkpt lat="42.96712" lon="-0.43817">
        <ele>658.159912</ele>
        <time>2014-03-31T10:43:18Z</time>
      </trkpt>
      <trkpt lat="42.96718" lon="-0.43818">
        <ele>657.679199</ele>
        <time>2014-03-31T10:43:32Z</time>
      </trkpt>
      <trkpt lat="42.96714" lon="-0.4382">
        <ele>656.717773</ele>
        <time>2014-03-31T10:43:44Z</time>
      </trkpt>
      <trkpt lat="42.96706" lon="-0.43825">
        <ele>655.275879</ele>
        <time>2014-03-31T10:43:55Z</time>
      </trkpt>
      <trkpt lat="42.96705" lon="-0.43825">
        <ele>654.795166</ele>
        <time>2014-03-31T10:43:56Z</time>
      </trkpt>
      <trkpt lat="42.96694" lon="-0.43836">
        <ele>654.314697</ele>
        <time>2014-03-31T10:44:08Z</time>
      </trkpt>
      <trkpt lat="42.96688" lon="-0.43847">
        <ele>653.833984</ele>
        <time>2014-03-31T10:44:19Z</time>
      </trkpt>
      <trkpt lat="42.96683" lon="-0.43861">
        <ele>652.872559</ele>
        <time>2014-03-31T10:44:31Z</time>
      </trkpt>
      <trkpt lat="42.96679" lon="-0.43876">
        <ele>649.988525</ele>
        <time>2014-03-31T10:44:45Z</time>
      </trkpt>
      <trkpt lat="42.96669" lon="-0.43887">
        <ele>649.988525</ele>
        <time>2014-03-31T10:44:57Z</time>
      </trkpt>
      <trkpt lat="42.96657" lon="-0.43897">
        <ele>649.988525</ele>
        <time>2014-03-31T10:45:09Z</time>
      </trkpt>
      <trkpt lat="42.96647" lon="-0.43908">
        <ele>646.143311</ele>
        <time>2014-03-31T10:45:25Z</time>
      </trkpt>
      <trkpt lat="42.96643" lon="-0.43916">
        <ele>644.220703</ele>
        <time>2014-03-31T10:45:36Z</time>
      </trkpt>
      <trkpt lat="42.96638" lon="-0.43924">
        <ele>643.73999</ele>
        <time>2014-03-31T10:45:49Z</time>
      </trkpt>
      <trkpt lat="42.96632" lon="-0.43924">
        <ele>645.181885</ele>
        <time>2014-03-31T10:46:03Z</time>
      </trkpt>
      <trkpt lat="42.96629" lon="-0.43929">
        <ele>645.662598</ele>
        <time>2014-03-31T10:46:25Z</time>
      </trkpt>
      <trkpt lat="42.96623" lon="-0.43938">
        <ele>644.701172</ele>
        <time>2014-03-31T10:46:40Z</time>
      </trkpt>
      <trkpt lat="42.96611" lon="-0.43944">
        <ele>646.143311</ele>
        <time>2014-03-31T10:46:55Z</time>
      </trkpt>
      <trkpt lat="42.96604" lon="-0.43946">
        <ele>649.507813</ele>
        <time>2014-03-31T10:47:07Z</time>
      </trkpt>
      <trkpt lat="42.96607" lon="-0.43939">
        <ele>650.949707</ele>
        <time>2014-03-31T10:47:22Z</time>
      </trkpt>
      <trkpt lat="42.96602" lon="-0.43939">
        <ele>651.911133</ele>
        <time>2014-03-31T10:47:34Z</time>
      </trkpt>
      <trkpt lat="42.96597" lon="-0.43942">
        <ele>651.43042</ele>
        <time>2014-03-31T10:47:39Z</time>
      </trkpt>
      <trkpt lat="42.96594" lon="-0.43943">
        <ele>651.43042</ele>
        <time>2014-03-31T10:47:42Z</time>
      </trkpt>
      <trkpt lat="42.96584" lon="-0.43949">
        <ele>649.988525</ele>
        <time>2014-03-31T10:47:54Z</time>
      </trkpt>
      <trkpt lat="42.96576" lon="-0.43954">
        <ele>649.507813</ele>
        <time>2014-03-31T10:48:06Z</time>
      </trkpt>
      <trkpt lat="42.96575" lon="-0.43953">
        <ele>648.065918</ele>
        <time>2014-03-31T10:48:21Z</time>
      </trkpt>
      <trkpt lat="42.96569" lon="-0.43963">
        <ele>648.546387</ele>
        <time>2014-03-31T10:48:50Z</time>
      </trkpt>
      <trkpt lat="42.96575" lon="-0.43953">
        <ele>647.585205</ele>
        <time>2014-03-31T10:49:37Z</time>
      </trkpt>
      <trkpt lat="42.9657" lon="-0.43959">
        <ele>646.624023</ele>
        <time>2014-03-31T10:50:28Z</time>
      </trkpt>
      <trkpt lat="42.96568" lon="-0.43971">
        <ele>648.546387</ele>
        <time>2014-03-31T10:54:06Z</time>
      </trkpt>
      <trkpt lat="42.96566" lon="-0.43965">
        <ele>649.0271</ele>
        <time>2014-03-31T10:54:17Z</time>
      </trkpt>
      <trkpt lat="42.96553" lon="-0.43964">
        <ele>649.0271</ele>
        <time>2014-03-31T10:54:31Z</time>
      </trkpt>
      <trkpt lat="42.96546" lon="-0.43965">
        <ele>646.624023</ele>
        <time>2014-03-31T10:54:42Z</time>
      </trkpt>
      <trkpt lat="42.96538" lon="-0.43968">
        <ele>646.143311</ele>
        <time>2014-03-31T10:54:50Z</time>
      </trkpt>
      <trkpt lat="42.96529" lon="-0.43973">
        <ele>646.624023</ele>
        <time>2014-03-31T10:55:01Z</time>
      </trkpt>
      <trkpt lat="42.9652" lon="-0.43977">
        <ele>647.585205</ele>
        <time>2014-03-31T10:55:11Z</time>
      </trkpt>
      <trkpt lat="42.96499" lon="-0.43985">
        <ele>646.624023</ele>
        <time>2014-03-31T10:55:26Z</time>
      </trkpt>
      <trkpt lat="42.96483" lon="-0.43991">
        <ele>646.624023</ele>
        <time>2014-03-31T10:55:38Z</time>
      </trkpt>
      <trkpt lat="42.96476" lon="-0.43989">
        <ele>647.585205</ele>
        <time>2014-03-31T10:55:51Z</time>
      </trkpt>
      <trkpt lat="42.96468" lon="-0.43998">
        <ele>647.585205</ele>
        <time>2014-03-31T10:56:02Z</time>
      </trkpt>
      <trkpt lat="42.96465" lon="-0.43999">
        <ele>647.585205</ele>
        <time>2014-03-31T10:56:07Z</time>
      </trkpt>
      <trkpt lat="42.9645" lon="-0.44001">
        <ele>650.469238</ele>
        <time>2014-03-31T10:56:18Z</time>
      </trkpt>
      <trkpt lat="42.96436" lon="-0.44004">
        <ele>650.469238</ele>
        <time>2014-03-31T10:56:30Z</time>
      </trkpt>
      <trkpt lat="42.96429" lon="-0.44008">
        <ele>649.988525</ele>
        <time>2014-03-31T10:56:39Z</time>
      </trkpt>
      <trkpt lat="42.96428" lon="-0.44007">
        <ele>650.469238</ele>
        <time>2014-03-31T10:56:40Z</time>
      </trkpt>
      <trkpt lat="42.96424" lon="-0.44007">
        <ele>649.988525</ele>
        <time>2014-03-31T10:56:46Z</time>
      </trkpt>
      <trkpt lat="42.96412" lon="-0.44005">
        <ele>651.911133</ele>
        <time>2014-03-31T10:57:01Z</time>
      </trkpt>
      <trkpt lat="42.96412" lon="-0.44004">
        <ele>651.911133</ele>
        <time>2014-03-31T10:57:02Z</time>
      </trkpt>
      <trkpt lat="42.96412" lon="-0.43999">
        <ele>654.795166</ele>
        <time>2014-03-31T10:57:14Z</time>
      </trkpt>
      <trkpt lat="42.96408" lon="-0.43995">
        <ele>655.756592</ele>
        <time>2014-03-31T10:57:27Z</time>
      </trkpt>
      <trkpt lat="42.96404" lon="-0.44005">
        <ele>656.717773</ele>
        <time>2014-03-31T10:57:49Z</time>
      </trkpt>
      <trkpt lat="42.96399" lon="-0.44004">
        <ele>656.717773</ele>
        <time>2014-03-31T10:58:10Z</time>
      </trkpt>
      <trkpt lat="42.96396" lon="-0.44">
        <ele>657.198486</ele>
        <time>2014-03-31T10:58:18Z</time>
      </trkpt>
      <trkpt lat="42.96382" lon="-0.43999">
        <ele>656.237061</ele>
        <time>2014-03-31T10:58:31Z</time>
      </trkpt>
      <trkpt lat="42.96375" lon="-0.43996">
        <ele>655.756592</ele>
        <time>2014-03-31T10:58:44Z</time>
      </trkpt>
      <trkpt lat="42.9637" lon="-0.44">
        <ele>656.717773</ele>
        <time>2014-03-31T10:58:54Z</time>
      </trkpt>
      <trkpt lat="42.96377" lon="-0.44004">
        <ele>658.159912</ele>
        <time>2014-03-31T10:59:04Z</time>
      </trkpt>
      <trkpt lat="42.96393" lon="-0.44001">
        <ele>657.198486</ele>
        <time>2014-03-31T10:59:17Z</time>
      </trkpt>
      <trkpt lat="42.96402" lon="-0.43997">
        <ele>656.717773</ele>
        <time>2014-03-31T10:59:35Z</time>
      </trkpt>
      <trkpt lat="42.96406" lon="-0.44002">
        <ele>657.198486</ele>
        <time>2014-03-31T10:59:54Z</time>
      </trkpt>
      <trkpt lat="42.96406" lon="-0.44">
        <ele>657.198486</ele>
        <time>2014-03-31T11:00:17Z</time>
      </trkpt>
      <trkpt lat="42.96406" lon="-0.43997">
        <ele>658.159912</ele>
        <time>2014-03-31T11:01:14Z</time>
      </trkpt>
      <trkpt lat="42.96404" lon="-0.43995">
        <ele>657.679199</ele>
        <time>2014-03-31T11:01:33Z</time>
      </trkpt>
      <trkpt lat="42.96402" lon="-0.43985">
        <ele>657.198486</ele>
        <time>2014-03-31T11:01:52Z</time>
      </trkpt>
      <trkpt lat="42.96406" lon="-0.43991">
        <ele>659.121094</ele>
        <time>2014-03-31T11:02:39Z</time>
      </trkpt>
      <trkpt lat="42.96398" lon="-0.43997">
        <ele>659.601807</ele>
        <time>2014-03-31T11:03:02Z</time>
      </trkpt>
      <trkpt lat="42.96391" lon="-0.43994">
        <ele>660.082275</ele>
        <time>2014-03-31T11:03:12Z</time>
      </trkpt>
      <trkpt lat="42.96389" lon="-0.43993">
        <ele>660.082275</ele>
        <time>2014-03-31T11:03:16Z</time>
      </trkpt>
      <trkpt lat="42.96383" lon="-0.43993">
        <ele>658.640381</ele>
        <time>2014-03-31T11:03:24Z</time>
      </trkpt>
      <trkpt lat="42.96371" lon="-0.43994">
        <ele>658.640381</ele>
        <time>2014-03-31T11:03:34Z</time>
      </trkpt>
      <trkpt lat="42.9637" lon="-0.43997">
        <ele>656.717773</ele>
        <time>2014-03-31T11:03:45Z</time>
      </trkpt>
      <trkpt lat="42.9636" lon="-0.44003">
        <ele>653.353271</ele>
        <time>2014-03-31T11:03:57Z</time>
      </trkpt>
      <trkpt lat="42.96346" lon="-0.44008">
        <ele>652.391846</ele>
        <time>2014-03-31T11:04:07Z</time>
      </trkpt>
      <trkpt lat="42.96334" lon="-0.44013">
        <ele>649.507813</ele>
        <time>2014-03-31T11:04:20Z</time>
      </trkpt>
      <trkpt lat="42.96338" lon="-0.4402">
        <ele>646.624023</ele>
        <time>2014-03-31T11:04:36Z</time>
      </trkpt>
      <trkpt lat="42.96335" lon="-0.44028">
        <ele>646.143311</ele>
        <time>2014-03-31T11:04:57Z</time>
      </trkpt>
      <trkpt lat="42.96333" lon="-0.44034">
        <ele>646.624023</ele>
        <time>2014-03-31T11:05:09Z</time>
      </trkpt>
      <trkpt lat="42.96327" lon="-0.44028">
        <ele>647.104492</ele>
        <time>2014-03-31T11:05:22Z</time>
      </trkpt>
      <trkpt lat="42.96327" lon="-0.44026">
        <ele>646.624023</ele>
        <time>2014-03-31T11:05:38Z</time>
      </trkpt>
      <trkpt lat="42.96327" lon="-0.44027">
        <ele>645.662598</ele>
        <time>2014-03-31T11:05:52Z</time>
      </trkpt>
      <trkpt lat="42.96319" lon="-0.44026">
        <ele>645.181885</ele>
        <time>2014-03-31T11:06:11Z</time>
      </trkpt>
      <trkpt lat="42.96312" lon="-0.44027">
        <ele>643.73999</ele>
        <time>2014-03-31T11:06:19Z</time>
      </trkpt>
      <trkpt lat="42.96309" lon="-0.44027">
        <ele>643.259277</ele>
        <time>2014-03-31T11:06:34Z</time>
      </trkpt>
      <trkpt lat="42.96298" lon="-0.4403">
        <ele>641.33667</ele>
        <time>2014-03-31T11:06:50Z</time>
      </trkpt>
      <trkpt lat="42.96291" lon="-0.44034">
        <ele>640.855957</ele>
        <time>2014-03-31T11:07:03Z</time>
      </trkpt>
      <trkpt lat="42.96273" lon="-0.44038">
        <ele>639.894775</ele>
        <time>2014-03-31T11:07:54Z</time>
      </trkpt>
      <trkpt lat="42.96256" lon="-0.4404">
        <ele>640.375488</ele>
        <time>2014-03-31T11:08:15Z</time>
      </trkpt>
      <trkpt lat="42.96236" lon="-0.44039">
        <ele>640.855957</ele>
        <time>2014-03-31T11:08:35Z</time>
      </trkpt>
      <trkpt lat="42.96214" lon="-0.44049">
        <ele>640.855957</ele>
        <time>2014-03-31T11:08:58Z</time>
      </trkpt>
      <trkpt lat="42.96194" lon="-0.44053">
        <ele>641.33667</ele>
        <time>2014-03-31T11:09:18Z</time>
      </trkpt>
      <trkpt lat="42.9618" lon="-0.44062">
        <ele>641.817383</ele>
        <time>2014-03-31T11:09:38Z</time>
      </trkpt>
      <trkpt lat="42.96174" lon="-0.44067">
        <ele>641.33667</ele>
        <time>2014-03-31T11:09:52Z</time>
      </trkpt>
      <trkpt lat="42.96172" lon="-0.44064">
        <ele>641.33667</ele>
        <time>2014-03-31T11:10:05Z</time>
      </trkpt>
      <trkpt lat="42.96165" lon="-0.44061">
        <ele>641.33667</ele>
        <time>2014-03-31T11:10:16Z</time>
      </trkpt>
      <trkpt lat="42.96176" lon="-0.44065">
        <ele>641.33667</ele>
        <time>2014-03-31T11:10:30Z</time>
      </trkpt>
      <trkpt lat="42.96179" lon="-0.44061">
        <ele>640.855957</ele>
        <time>2014-03-31T11:10:47Z</time>
      </trkpt>
      <trkpt lat="42.96179" lon="-0.44062">
        <ele>640.375488</ele>
        <time>2014-03-31T11:11:17Z</time>
      </trkpt>
      <trkpt lat="42.96179" lon="-0.44062">
        <ele>640.375488</ele>
        <time>2014-03-31T11:11:41Z</time>
      </trkpt>
      <trkpt lat="42.96178" lon="-0.44063">
        <ele>640.375488</ele>
        <time>2014-03-31T11:12:04Z</time>
      </trkpt>
      <trkpt lat="42.96179" lon="-0.44063">
        <ele>639.894775</ele>
        <time>2014-03-31T11:12:48Z</time>
      </trkpt>
      <trkpt lat="42.96177" lon="-0.44067">
        <ele>639.414063</ele>
        <time>2014-03-31T11:13:20Z</time>
      </trkpt>
      <trkpt lat="42.96177" lon="-0.44065">
        <ele>639.414063</ele>
        <time>2014-03-31T11:13:56Z</time>
      </trkpt>
      <trkpt lat="42.96176" lon="-0.44065">
        <ele>638.933594</ele>
        <time>2014-03-31T11:14:15Z</time>
      </trkpt>
      <trkpt lat="42.96171" lon="-0.44066">
        <ele>639.894775</ele>
        <time>2014-03-31T11:14:39Z</time>
      </trkpt>
      <trkpt lat="42.96162" lon="-0.4406">
        <ele>639.894775</ele>
        <time>2014-03-31T11:14:56Z</time>
      </trkpt>
      <trkpt lat="42.96156" lon="-0.44056">
        <ele>639.894775</ele>
        <time>2014-03-31T11:15:03Z</time>
      </trkpt>
      <trkpt lat="42.96148" lon="-0.44052">
        <ele>639.894775</ele>
        <time>2014-03-31T11:15:12Z</time>
      </trkpt>
      <trkpt lat="42.96141" lon="-0.44053">
        <ele>639.414063</ele>
        <time>2014-03-31T11:15:17Z</time>
      </trkpt>
      <trkpt lat="42.96134" lon="-0.44051">
        <ele>637.972168</ele>
        <time>2014-03-31T11:15:24Z</time>
      </trkpt>
      <trkpt lat="42.9612" lon="-0.44052">
        <ele>636.049561</ele>
        <time>2014-03-31T11:15:37Z</time>
      </trkpt>
      <trkpt lat="42.96108" lon="-0.44044">
        <ele>637.010742</ele>
        <time>2014-03-31T11:15:51Z</time>
      </trkpt>
      <trkpt lat="42.96099" lon="-0.44039">
        <ele>636.530273</ele>
        <time>2014-03-31T11:16:05Z</time>
      </trkpt>
      <trkpt lat="42.96094" lon="-0.44047">
        <ele>635.088135</ele>
        <time>2014-03-31T11:16:18Z</time>
      </trkpt>
      <trkpt lat="42.96095" lon="-0.4404">
        <ele>636.530273</ele>
        <time>2014-03-31T11:16:39Z</time>
      </trkpt>
      <trkpt lat="42.9609" lon="-0.44035">
        <ele>637.010742</ele>
        <time>2014-03-31T11:16:46Z</time>
      </trkpt>
      <trkpt lat="42.96083" lon="-0.44029">
        <ele>638.452881</ele>
        <time>2014-03-31T11:16:58Z</time>
      </trkpt>
      <trkpt lat="42.96078" lon="-0.44028">
        <ele>637.972168</ele>
        <time>2014-03-31T11:17:04Z</time>
      </trkpt>
      <trkpt lat="42.96076" lon="-0.44029">
        <ele>637.491455</ele>
        <time>2014-03-31T11:17:06Z</time>
      </trkpt>
      <trkpt lat="42.96069" lon="-0.44029">
        <ele>637.491455</ele>
        <time>2014-03-31T11:17:13Z</time>
      </trkpt>
      <trkpt lat="42.9606" lon="-0.44027">
        <ele>637.972168</ele>
        <time>2014-03-31T11:17:27Z</time>
      </trkpt>
      <trkpt lat="42.9606" lon="-0.44025">
        <ele>637.491455</ele>
        <time>2014-03-31T11:20:10Z</time>
      </trkpt>
      <trkpt lat="42.96049" lon="-0.44026">
        <ele>637.010742</ele>
        <time>2014-03-31T11:20:29Z</time>
      </trkpt>
      <trkpt lat="42.9604" lon="-0.44027">
        <ele>637.491455</ele>
        <time>2014-03-31T11:20:41Z</time>
      </trkpt>
      <trkpt lat="42.96028" lon="-0.44025">
        <ele>637.010742</ele>
        <time>2014-03-31T11:20:53Z</time>
      </trkpt>
      <trkpt lat="42.96019" lon="-0.4402">
        <ele>638.452881</ele>
        <time>2014-03-31T11:21:07Z</time>
      </trkpt>
      <trkpt lat="42.96007" lon="-0.44018">
        <ele>638.452881</ele>
        <time>2014-03-31T11:21:20Z</time>
      </trkpt>
      <trkpt lat="42.95996" lon="-0.44017">
        <ele>640.375488</ele>
        <time>2014-03-31T11:21:31Z</time>
      </trkpt>
      <trkpt lat="42.95987" lon="-0.44014">
        <ele>641.33667</ele>
        <time>2014-03-31T11:21:41Z</time>
      </trkpt>
      <trkpt lat="42.9598" lon="-0.44004">
        <ele>642.298096</ele>
        <time>2014-03-31T11:21:54Z</time>
      </trkpt>
      <trkpt lat="42.95972" lon="-0.44003">
        <ele>642.778809</ele>
        <time>2014-03-31T11:22:04Z</time>
      </trkpt>
      <trkpt lat="42.95966" lon="-0.44005">
        <ele>642.778809</ele>
        <time>2014-03-31T11:22:08Z</time>
      </trkpt>
      <trkpt lat="42.95949" lon="-0.44011">
        <ele>643.259277</ele>
        <time>2014-03-31T11:22:22Z</time>
      </trkpt>
      <trkpt lat="42.95947" lon="-0.4401">
        <ele>643.259277</ele>
        <time>2014-03-31T11:22:25Z</time>
      </trkpt>
      <trkpt lat="42.95939" lon="-0.44012">
        <ele>643.259277</ele>
        <time>2014-03-31T11:22:31Z</time>
      </trkpt>
      <trkpt lat="42.95927" lon="-0.44018">
        <ele>642.778809</ele>
        <time>2014-03-31T11:22:46Z</time>
      </trkpt>
      <trkpt lat="42.95911" lon="-0.44031">
        <ele>644.220703</ele>
        <time>2014-03-31T11:22:56Z</time>
      </trkpt>
      <trkpt lat="42.95896" lon="-0.44041">
        <ele>644.220703</ele>
        <time>2014-03-31T11:23:07Z</time>
      </trkpt>
      <trkpt lat="42.95881" lon="-0.44048">
        <ele>646.143311</ele>
        <time>2014-03-31T11:23:21Z</time>
      </trkpt>
      <trkpt lat="42.95872" lon="-0.44044">
        <ele>647.104492</ele>
        <time>2014-03-31T11:23:34Z</time>
      </trkpt>
      <trkpt lat="42.95868" lon="-0.44043">
        <ele>648.065918</ele>
        <time>2014-03-31T11:23:47Z</time>
      </trkpt>
      <trkpt lat="42.95865" lon="-0.44045">
        <ele>647.104492</ele>
        <time>2014-03-31T11:24:01Z</time>
      </trkpt>
      <trkpt lat="42.95863" lon="-0.44047">
        <ele>647.585205</ele>
        <time>2014-03-31T11:24:21Z</time>
      </trkpt>
      <trkpt lat="42.95861" lon="-0.44048">
        <ele>648.546387</ele>
        <time>2014-03-31T11:24:24Z</time>
      </trkpt>
      <trkpt lat="42.95852" lon="-0.44051">
        <ele>648.065918</ele>
        <time>2014-03-31T11:24:41Z</time>
      </trkpt>
      <trkpt lat="42.95861" lon="-0.44038">
        <ele>649.507813</ele>
        <time>2014-03-31T11:25:10Z</time>
      </trkpt>
      <trkpt lat="42.95864" lon="-0.44039">
        <ele>649.507813</ele>
        <time>2014-03-31T11:25:23Z</time>
      </trkpt>
      <trkpt lat="42.95864" lon="-0.44039">
        <ele>649.507813</ele>
        <time>2014-03-31T11:25:41Z</time>
      </trkpt>
      <trkpt lat="42.95862" lon="-0.44039">
        <ele>649.988525</ele>
        <time>2014-03-31T11:26:12Z</time>
      </trkpt>
      <trkpt lat="42.95864" lon="-0.44039">
        <ele>649.0271</ele>
        <time>2014-03-31T11:26:29Z</time>
      </trkpt>
      <trkpt lat="42.95858" lon="-0.44039">
        <ele>649.0271</ele>
        <time>2014-03-31T11:26:48Z</time>
      </trkpt>
      <trkpt lat="42.95855" lon="-0.44043">
        <ele>649.507813</ele>
        <time>2014-03-31T11:27:06Z</time>
      </trkpt>
      <trkpt lat="42.95854" lon="-0.44037">
        <ele>649.507813</ele>
        <time>2014-03-31T11:27:24Z</time>
      </trkpt>
      <trkpt lat="42.95854" lon="-0.4404">
        <ele>649.507813</ele>
        <time>2014-03-31T11:27:34Z</time>
      </trkpt>
      <trkpt lat="42.95853" lon="-0.44046">
        <ele>649.988525</ele>
        <time>2014-03-31T11:27:50Z</time>
      </trkpt>
      <trkpt lat="42.95853" lon="-0.44046">
        <ele>649.988525</ele>
        <time>2014-03-31T11:28:21Z</time>
      </trkpt>
      <trkpt lat="42.95849" lon="-0.44047">
        <ele>649.988525</ele>
        <time>2014-03-31T11:28:59Z</time>
      </trkpt>
      <trkpt lat="42.95841" lon="-0.44047">
        <ele>650.469238</ele>
        <time>2014-03-31T11:29:13Z</time>
      </trkpt>
      <trkpt lat="42.95838" lon="-0.44046">
        <ele>649.507813</ele>
        <time>2014-03-31T11:29:21Z</time>
      </trkpt>
      <trkpt lat="42.95823" lon="-0.44046">
        <ele>649.988525</ele>
        <time>2014-03-31T11:29:40Z</time>
      </trkpt>
      <trkpt lat="42.9581" lon="-0.44048">
        <ele>649.988525</ele>
        <time>2014-03-31T11:29:54Z</time>
      </trkpt>
      <trkpt lat="42.958" lon="-0.44047">
        <ele>650.469238</ele>
        <time>2014-03-31T11:30:09Z</time>
      </trkpt>
      <trkpt lat="42.95795" lon="-0.44042">
        <ele>650.469238</ele>
        <time>2014-03-31T11:30:21Z</time>
      </trkpt>
      <trkpt lat="42.95794" lon="-0.44038">
        <ele>650.949707</ele>
        <time>2014-03-31T11:30:26Z</time>
      </trkpt>
      <trkpt lat="42.95797" lon="-0.44034">
        <ele>651.911133</ele>
        <time>2014-03-31T11:30:32Z</time>
      </trkpt>
      <trkpt lat="42.95805" lon="-0.44031">
        <ele>652.391846</ele>
        <time>2014-03-31T11:30:51Z</time>
      </trkpt>
      <trkpt lat="42.95811" lon="-0.44031">
        <ele>651.911133</ele>
        <time>2014-03-31T11:32:23Z</time>
      </trkpt>
      <trkpt lat="42.95808" lon="-0.44029">
        <ele>651.43042</ele>
        <time>2014-03-31T11:32:27Z</time>
      </trkpt>
      <trkpt lat="42.95783" lon="-0.44039">
        <ele>650.949707</ele>
        <time>2014-03-31T11:32:44Z</time>
      </trkpt>
      <trkpt lat="42.95773" lon="-0.44041">
        <ele>651.43042</ele>
        <time>2014-03-31T11:32:55Z</time>
      </trkpt>
      <trkpt lat="42.95752" lon="-0.44035">
        <ele>652.391846</ele>
        <time>2014-03-31T11:33:15Z</time>
      </trkpt>
      <trkpt lat="42.95728" lon="-0.44021">
        <ele>653.833984</ele>
        <time>2014-03-31T11:33:38Z</time>
      </trkpt>
      <trkpt lat="42.95708" lon="-0.44002">
        <ele>653.353271</ele>
        <time>2014-03-31T11:33:59Z</time>
      </trkpt>
      <trkpt lat="42.95691" lon="-0.43984">
        <ele>652.872559</ele>
        <time>2014-03-31T11:34:19Z</time>
      </trkpt>
      <trkpt lat="42.9567" lon="-0.43965">
        <ele>653.353271</ele>
        <time>2014-03-31T11:34:42Z</time>
      </trkpt>
      <trkpt lat="42.95659" lon="-0.43955">
        <ele>652.391846</ele>
        <time>2014-03-31T11:34:57Z</time>
      </trkpt>
      <trkpt lat="42.95665" lon="-0.43956">
        <ele>653.353271</ele>
        <time>2014-03-31T11:35:16Z</time>
      </trkpt>
      <trkpt lat="42.95666" lon="-0.43955">
        <ele>654.314697</ele>
        <time>2014-03-31T11:36:08Z</time>
      </trkpt>
      <trkpt lat="42.95671" lon="-0.43951">
        <ele>651.43042</ele>
        <time>2014-03-31T11:37:28Z</time>
      </trkpt>
      <trkpt lat="42.95668" lon="-0.43948">
        <ele>652.872559</ele>
        <time>2014-03-31T11:37:33Z</time>
      </trkpt>
      <trkpt lat="42.95652" lon="-0.43938">
        <ele>651.911133</ele>
        <time>2014-03-31T11:37:53Z</time>
      </trkpt>
      <trkpt lat="42.95656" lon="-0.4394">
        <ele>651.911133</ele>
        <time>2014-03-31T11:38:57Z</time>
      </trkpt>
      <trkpt lat="42.95658" lon="-0.43938">
        <ele>652.391846</ele>
        <time>2014-03-31T11:39:28Z</time>
      </trkpt>
      <trkpt lat="42.95669" lon="-0.43939">
        <ele>652.872559</ele>
        <time>2014-03-31T11:39:47Z</time>
      </trkpt>
      <trkpt lat="42.95666" lon="-0.43937">
        <ele>653.833984</ele>
        <time>2014-03-31T11:40:19Z</time>
      </trkpt>
      <trkpt lat="42.95673" lon="-0.43938">
        <ele>654.795166</ele>
        <time>2014-03-31T11:40:56Z</time>
      </trkpt>
      <trkpt lat="42.95666" lon="-0.43935">
        <ele>655.275879</ele>
        <time>2014-03-31T11:41:09Z</time>
      </trkpt>
      <trkpt lat="42.95671" lon="-0.43937">
        <ele>654.314697</ele>
        <time>2014-03-31T11:42:16Z</time>
      </trkpt>
      <trkpt lat="42.95665" lon="-0.43935">
        <ele>654.314697</ele>
        <time>2014-03-31T11:42:46Z</time>
      </trkpt>
      <trkpt lat="42.9566" lon="-0.43933">
        <ele>654.314697</ele>
        <time>2014-03-31T11:43:06Z</time>
      </trkpt>
      <trkpt lat="42.95656" lon="-0.43933">
        <ele>656.237061</ele>
        <time>2014-03-31T11:46:08Z</time>
      </trkpt>
      <trkpt lat="42.95656" lon="-0.43935">
        <ele>656.237061</ele>
        <time>2014-03-31T11:46:24Z</time>
      </trkpt>
      <trkpt lat="42.95653" lon="-0.43928">
        <ele>659.121094</ele>
        <time>2014-03-31T11:46:46Z</time>
      </trkpt>
      <trkpt lat="42.95642" lon="-0.43925">
        <ele>661.524414</ele>
        <time>2014-03-31T11:46:57Z</time>
      </trkpt>
      <trkpt lat="42.95636" lon="-0.43915">
        <ele>663.92749</ele>
        <time>2014-03-31T11:47:09Z</time>
      </trkpt>
      <trkpt lat="42.95632" lon="-0.43909">
        <ele>665.369629</ele>
        <time>2014-03-31T11:47:18Z</time>
      </trkpt>
      <trkpt lat="42.95623" lon="-0.43902">
        <ele>667.292236</ele>
        <time>2014-03-31T11:47:29Z</time>
      </trkpt>
      <trkpt lat="42.95614" lon="-0.43897">
        <ele>670.656982</ele>
        <time>2014-03-31T11:47:40Z</time>
      </trkpt>
      <trkpt lat="42.9561" lon="-0.43894">
        <ele>671.618164</ele>
        <time>2014-03-31T11:47:47Z</time>
      </trkpt>
      <trkpt lat="42.956" lon="-0.43891">
        <ele>674.021484</ele>
        <time>2014-03-31T11:48:00Z</time>
      </trkpt>
      <trkpt lat="42.95594" lon="-0.43885">
        <ele>674.021484</ele>
        <time>2014-03-31T11:48:15Z</time>
      </trkpt>
      <trkpt lat="42.95592" lon="-0.43884">
        <ele>674.502197</ele>
        <time>2014-03-31T11:48:31Z</time>
      </trkpt>
      <trkpt lat="42.95589" lon="-0.43882">
        <ele>674.502197</ele>
        <time>2014-03-31T11:48:46Z</time>
      </trkpt>
      <trkpt lat="42.95583" lon="-0.43879">
        <ele>674.021484</ele>
        <time>2014-03-31T11:48:58Z</time>
      </trkpt>
      <trkpt lat="42.9558" lon="-0.43877">
        <ele>674.98291</ele>
        <time>2014-03-31T11:49:02Z</time>
      </trkpt>
      <trkpt lat="42.95578" lon="-0.43877">
        <ele>674.98291</ele>
        <time>2014-03-31T11:49:04Z</time>
      </trkpt>
      <trkpt lat="42.95569" lon="-0.43876">
        <ele>675.463379</ele>
        <time>2014-03-31T11:49:19Z</time>
      </trkpt>
      <trkpt lat="42.95566" lon="-0.43875">
        <ele>675.463379</ele>
        <time>2014-03-31T11:49:22Z</time>
      </trkpt>
      <trkpt lat="42.95564" lon="-0.43874">
        <ele>675.944092</ele>
        <time>2014-03-31T11:49:28Z</time>
      </trkpt>
      <trkpt lat="42.95575" lon="-0.43878">
        <ele>674.98291</ele>
        <time>2014-03-31T11:49:42Z</time>
      </trkpt>
      <trkpt lat="42.95586" lon="-0.43882">
        <ele>674.502197</ele>
        <time>2014-03-31T11:49:59Z</time>
      </trkpt>
      <trkpt lat="42.95594" lon="-0.43885">
        <ele>673.541016</ele>
        <time>2014-03-31T11:50:13Z</time>
      </trkpt>
      <trkpt lat="42.95594" lon="-0.43882">
        <ele>674.502197</ele>
        <time>2014-03-31T11:50:17Z</time>
      </trkpt>
      <trkpt lat="42.95576" lon="-0.43876">
        <ele>675.463379</ele>
        <time>2014-03-31T11:50:34Z</time>
      </trkpt>
      <trkpt lat="42.95572" lon="-0.43874">
        <ele>675.944092</ele>
        <time>2014-03-31T11:50:49Z</time>
      </trkpt>
      <trkpt lat="42.95565" lon="-0.43873">
        <ele>675.944092</ele>
        <time>2014-03-31T11:51:05Z</time>
      </trkpt>
      <trkpt lat="42.95567" lon="-0.43868">
        <ele>676.424805</ele>
        <time>2014-03-31T11:51:18Z</time>
      </trkpt>
      <trkpt lat="42.95559" lon="-0.43868">
        <ele>676.905518</ele>
        <time>2014-03-31T11:51:56Z</time>
      </trkpt>
      <trkpt lat="42.95555" lon="-0.43871">
        <ele>676.905518</ele>
        <time>2014-03-31T11:52:11Z</time>
      </trkpt>
      <trkpt lat="42.95551" lon="-0.43873">
        <ele>676.905518</ele>
        <time>2014-03-31T11:52:23Z</time>
      </trkpt>
      <trkpt lat="42.95548" lon="-0.43873">
        <ele>677.38623</ele>
        <time>2014-03-31T11:52:26Z</time>
      </trkpt>
      <trkpt lat="42.95539" lon="-0.43875">
        <ele>677.38623</ele>
        <time>2014-03-31T11:52:35Z</time>
      </trkpt>
      <trkpt lat="42.95515" lon="-0.43889">
        <ele>678.347412</ele>
        <time>2014-03-31T11:52:55Z</time>
      </trkpt>
      <trkpt lat="42.95494" lon="-0.43906">
        <ele>679.789307</ele>
        <time>2014-03-31T11:53:13Z</time>
      </trkpt>
      <trkpt lat="42.9547" lon="-0.43916">
        <ele>679.789307</ele>
        <time>2014-03-31T11:53:35Z</time>
      </trkpt>
      <trkpt lat="42.9546" lon="-0.43916">
        <ele>680.27002</ele>
        <time>2014-03-31T11:53:44Z</time>
      </trkpt>
      <trkpt lat="42.95455" lon="-0.43916">
        <ele>680.27002</ele>
        <time>2014-03-31T11:53:58Z</time>
      </trkpt>
      <trkpt lat="42.95455" lon="-0.43916">
        <ele>678.828125</ele>
        <time>2014-03-31T11:54:28Z</time>
      </trkpt>
      <trkpt lat="42.95454" lon="-0.43916">
        <ele>679.789307</ele>
        <time>2014-03-31T11:54:48Z</time>
      </trkpt>
      <trkpt lat="42.95453" lon="-0.43916">
        <ele>680.27002</ele>
        <time>2014-03-31T11:55:05Z</time>
      </trkpt>
      <trkpt lat="42.95443" lon="-0.43917">
        <ele>678.347412</ele>
        <time>2014-03-31T11:55:35Z</time>
      </trkpt>
      <trkpt lat="42.95436" lon="-0.43919">
        <ele>677.38623</ele>
        <time>2014-03-31T11:55:54Z</time>
      </trkpt>
      <trkpt lat="42.95437" lon="-0.43921">
        <ele>677.866699</ele>
        <time>2014-03-31T11:56:08Z</time>
      </trkpt>
      <trkpt lat="42.95421" lon="-0.43922">
        <ele>676.424805</ele>
        <time>2014-03-31T11:56:26Z</time>
      </trkpt>
      <trkpt lat="42.95412" lon="-0.43928">
        <ele>674.502197</ele>
        <time>2014-03-31T11:56:43Z</time>
      </trkpt>
      <trkpt lat="42.95412" lon="-0.43928">
        <ele>674.98291</ele>
        <time>2014-03-31T11:57:11Z</time>
      </trkpt>
      <trkpt lat="42.95405" lon="-0.43929">
        <ele>674.502197</ele>
        <time>2014-03-31T11:57:38Z</time>
      </trkpt>
      <trkpt lat="42.9541" lon="-0.4393">
        <ele>675.463379</ele>
        <time>2014-03-31T11:59:07Z</time>
      </trkpt>
      <trkpt lat="42.95409" lon="-0.43928">
        <ele>675.944092</ele>
        <time>2014-03-31T11:59:24Z</time>
      </trkpt>
      <trkpt lat="42.954" lon="-0.43931">
        <ele>677.38623</ele>
        <time>2014-03-31T11:59:36Z</time>
      </trkpt>
      <trkpt lat="42.95394" lon="-0.43935">
        <ele>676.424805</ele>
        <time>2014-03-31T11:59:53Z</time>
      </trkpt>
      <trkpt lat="42.95384" lon="-0.43941">
        <ele>676.424805</ele>
        <time>2014-03-31T12:00:03Z</time>
      </trkpt>
      <trkpt lat="42.95373" lon="-0.43946">
        <ele>676.424805</ele>
        <time>2014-03-31T12:00:22Z</time>
      </trkpt>
      <trkpt lat="42.9537" lon="-0.43949">
        <ele>676.424805</ele>
        <time>2014-03-31T12:00:49Z</time>
      </trkpt>
      <trkpt lat="42.95365" lon="-0.43963">
        <ele>675.463379</ele>
        <time>2014-03-31T12:01:07Z</time>
      </trkpt>
      <trkpt lat="42.95366" lon="-0.43967">
        <ele>675.463379</ele>
        <time>2014-03-31T12:01:33Z</time>
      </trkpt>
      <trkpt lat="42.95371" lon="-0.43967">
        <ele>674.98291</ele>
        <time>2014-03-31T12:02:01Z</time>
      </trkpt>
      <trkpt lat="42.95378" lon="-0.43969">
        <ele>674.98291</ele>
        <time>2014-03-31T12:02:30Z</time>
      </trkpt>
      <trkpt lat="42.95368" lon="-0.43973">
        <ele>675.463379</ele>
        <time>2014-03-31T12:03:33Z</time>
      </trkpt>
      <trkpt lat="42.95368" lon="-0.43969">
        <ele>672.098877</ele>
        <time>2014-03-31T12:10:07Z</time>
      </trkpt>
      <trkpt lat="42.95368" lon="-0.43959">
        <ele>674.98291</ele>
        <time>2014-03-31T12:16:53Z</time>
      </trkpt>
      <trkpt lat="42.95368" lon="-0.43961">
        <ele>677.866699</ele>
        <time>2014-03-31T12:20:05Z</time>
      </trkpt>
      <trkpt lat="42.95368" lon="-0.4396">
        <ele>677.38623</ele>
        <time>2014-03-31T12:20:16Z</time>
      </trkpt>
    </trkseg>
  </trk>
  <trk>
    <name><![CDATA[ACTIVE LOG 001]]></name>
    <trkseg>
      <trkpt lat="42.95369" lon="-0.43961">
        <ele>656.237061</ele>
        <time>2014-03-31T12:38:12Z</time>
      </trkpt>
      <trkpt lat="42.95369" lon="-0.43961">
        <ele>655.756592</ele>
        <time>2014-03-31T12:38:13Z</time>
      </trkpt>
    </trkseg>
  </trk>
  <trk>
    <name><![CDATA[ACTIVE LOG 002]]></name>
    <trkseg>
      <trkpt lat="42.95383" lon="-0.43969">
        <ele>656.717773</ele>
        <time>2014-03-31T12:38:16Z</time>
      </trkpt>
      <trkpt lat="42.95366" lon="-0.43964">
        <ele>660.082275</ele>
        <time>2014-03-31T12:38:56Z</time>
      </trkpt>
      <trkpt lat="42.95367" lon="-0.43963">
        <ele>661.043701</ele>
        <time>2014-03-31T12:38:58Z</time>
      </trkpt>
      <trkpt lat="42.95368" lon="-0.43963">
        <ele>663.92749</ele>
        <time>2014-03-31T12:39:06Z</time>
      </trkpt>
      <trkpt lat="42.9537" lon="-0.43961">
        <ele>667.292236</ele>
        <time>2014-03-31T12:39:19Z</time>
      </trkpt>
      <trkpt lat="42.95375" lon="-0.43957">
        <ele>670.656982</ele>
        <time>2014-03-31T12:39:28Z</time>
      </trkpt>
      <trkpt lat="42.95377" lon="-0.43954">
        <ele>674.021484</ele>
        <time>2014-03-31T12:39:33Z</time>
      </trkpt>
      <trkpt lat="42.95377" lon="-0.43953">
        <ele>673.541016</ele>
        <time>2014-03-31T12:39:34Z</time>
      </trkpt>
      <trkpt lat="42.9538" lon="-0.43951">
        <ele>676.905518</ele>
        <time>2014-03-31T12:39:41Z</time>
      </trkpt>
      <trkpt lat="42.9538" lon="-0.43951">
        <ele>677.38623</ele>
        <time>2014-03-31T12:39:42Z</time>
      </trkpt>
      <trkpt lat="42.95383" lon="-0.43948">
        <ele>678.347412</ele>
        <time>2014-03-31T12:39:44Z</time>
      </trkpt>
      <trkpt lat="42.95384" lon="-0.43947">
        <ele>681.231445</ele>
        <time>2014-03-31T12:39:49Z</time>
      </trkpt>
      <trkpt lat="42.95384" lon="-0.43945">
        <ele>684.115479</ele>
        <time>2014-03-31T12:39:54Z</time>
      </trkpt>
      <trkpt lat="42.95385" lon="-0.43945">
        <ele>685.076904</ele>
        <time>2014-03-31T12:39:56Z</time>
      </trkpt>
      <trkpt lat="42.95389" lon="-0.43937">
        <ele>688.441406</ele>
        <time>2014-03-31T12:40:00Z</time>
      </trkpt>
      <trkpt lat="42.95391" lon="-0.43934">
        <ele>691.805908</ele>
        <time>2014-03-31T12:40:04Z</time>
      </trkpt>
      <trkpt lat="42.9539" lon="-0.43935">
        <ele>695.651123</ele>
        <time>2014-03-31T12:40:08Z</time>
      </trkpt>
      <trkpt lat="42.9539" lon="-0.43934">
        <ele>699.977051</ele>
        <time>2014-03-31T12:40:12Z</time>
      </trkpt>
      <trkpt lat="42.9539" lon="-0.43934">
        <ele>699.977051</ele>
        <time>2014-03-31T12:40:13Z</time>
      </trkpt>
      <trkpt lat="42.95389" lon="-0.43934">
        <ele>703.82251</ele>
        <time>2014-03-31T12:40:18Z</time>
      </trkpt>
      <trkpt lat="42.95388" lon="-0.43936">
        <ele>707.667725</ele>
        <time>2014-03-31T12:40:24Z</time>
      </trkpt>
      <trkpt lat="42.95385" lon="-0.43938">
        <ele>711.512939</ele>
        <time>2014-03-31T12:40:31Z</time>
      </trkpt>
      <trkpt lat="42.95382" lon="-0.4394">
        <ele>715.358154</ele>
        <time>2014-03-31T12:40:40Z</time>
      </trkpt>
      <trkpt lat="42.95382" lon="-0.43941">
        <ele>715.358154</ele>
        <time>2014-03-31T12:40:41Z</time>
      </trkpt>
      <trkpt lat="42.95382" lon="-0.43959">
        <ele>716.800293</ele>
        <time>2014-03-31T12:41:01Z</time>
      </trkpt>
      <trkpt lat="42.95382" lon="-0.43961">
        <ele>713.435547</ele>
        <time>2014-03-31T12:41:06Z</time>
      </trkpt>
      <trkpt lat="42.9538" lon="-0.43973">
        <ele>715.838867</ele>
        <time>2014-03-31T12:41:28Z</time>
      </trkpt>
      <trkpt lat="42.95378" lon="-0.43978">
        <ele>712.474121</ele>
        <time>2014-03-31T12:42:04Z</time>
      </trkpt>
      <trkpt lat="42.9538" lon="-0.4398">
        <ele>711.512939</ele>
        <time>2014-03-31T12:42:20Z</time>
      </trkpt>
      <trkpt lat="42.95375" lon="-0.43972">
        <ele>712.474121</ele>
        <time>2014-03-31T12:42:45Z</time>
      </trkpt>
      <trkpt lat="42.95373" lon="-0.4397">
        <ele>712.474121</ele>
        <time>2014-03-31T12:43:00Z</time>
      </trkpt>
      <trkpt lat="42.95371" lon="-0.43972">
        <ele>711.512939</ele>
        <time>2014-03-31T12:43:17Z</time>
      </trkpt>
      <trkpt lat="42.95374" lon="-0.43964">
        <ele>711.032227</ele>
        <time>2014-03-31T12:43:34Z</time>
      </trkpt>
      <trkpt lat="42.95375" lon="-0.43962">
        <ele>711.032227</ele>
        <time>2014-03-31T12:43:37Z</time>
      </trkpt>
      <trkpt lat="42.95374" lon="-0.43953">
        <ele>710.070801</ele>
        <time>2014-03-31T12:43:50Z</time>
      </trkpt>
      <trkpt lat="42.95376" lon="-0.43953">
        <ele>711.032227</ele>
        <time>2014-03-31T12:43:53Z</time>
      </trkpt>
      <trkpt lat="42.95379" lon="-0.43954">
        <ele>711.032227</ele>
        <time>2014-03-31T12:43:57Z</time>
      </trkpt>
      <trkpt lat="42.95378" lon="-0.43976">
        <ele>711.032227</ele>
        <time>2014-03-31T12:44:11Z</time>
      </trkpt>
      <trkpt lat="42.9538" lon="-0.43996">
        <ele>710.070801</ele>
        <time>2014-03-31T12:44:25Z</time>
      </trkpt>
      <trkpt lat="42.95383" lon="-0.44014">
        <ele>709.109619</ele>
        <time>2014-03-31T12:44:39Z</time>
      </trkpt>
      <trkpt lat="42.95383" lon="-0.44025">
        <ele>709.590332</ele>
        <time>2014-03-31T12:44:57Z</time>
      </trkpt>
      <trkpt lat="42.95388" lon="-0.44019">
        <ele>709.590332</ele>
        <time>2014-03-31T12:45:18Z</time>
      </trkpt>
      <trkpt lat="42.95391" lon="-0.44027">
        <ele>710.070801</ele>
        <time>2014-03-31T12:45:39Z</time>
      </trkpt>
      <trkpt lat="42.95389" lon="-0.44031">
        <ele>708.628906</ele>
        <time>2014-03-31T12:46:16Z</time>
      </trkpt>
      <trkpt lat="42.95387" lon="-0.4403">
        <ele>708.628906</ele>
        <time>2014-03-31T12:46:17Z</time>
      </trkpt>
      <trkpt lat="42.95386" lon="-0.4403">
        <ele>707.187012</ele>
        <time>2014-03-31T12:46:56Z</time>
      </trkpt>
      <trkpt lat="42.95382" lon="-0.44026">
        <ele>706.706299</ele>
        <time>2014-03-31T12:47:50Z</time>
      </trkpt>
      <trkpt lat="42.95372" lon="-0.44024">
        <ele>705.264404</ele>
        <time>2014-03-31T12:48:08Z</time>
      </trkpt>
      <trkpt lat="42.95361" lon="-0.44025">
        <ele>704.783691</ele>
        <time>2014-03-31T12:48:23Z</time>
      </trkpt>
      <trkpt lat="42.95356" lon="-0.4403">
        <ele>706.225586</ele>
        <time>2014-03-31T12:48:40Z</time>
      </trkpt>
      <trkpt lat="42.95348" lon="-0.44036">
        <ele>708.148438</ele>
        <time>2014-03-31T12:48:54Z</time>
      </trkpt>
      <trkpt lat="42.95338" lon="-0.44039">
        <ele>709.109619</ele>
        <time>2014-03-31T12:49:07Z</time>
      </trkpt>
      <trkpt lat="42.95335" lon="-0.44041">
        <ele>709.109619</ele>
        <time>2014-03-31T12:49:11Z</time>
      </trkpt>
      <trkpt lat="42.95328" lon="-0.44043">
        <ele>709.109619</ele>
        <time>2014-03-31T12:49:20Z</time>
      </trkpt>
      <trkpt lat="42.95323" lon="-0.44043">
        <ele>708.628906</ele>
        <time>2014-03-31T12:49:25Z</time>
      </trkpt>
      <trkpt lat="42.95305" lon="-0.44044">
        <ele>709.109619</ele>
        <time>2014-03-31T12:49:41Z</time>
      </trkpt>
      <trkpt lat="42.95299" lon="-0.44046">
        <ele>708.628906</ele>
        <time>2014-03-31T12:49:45Z</time>
      </trkpt>
      <trkpt lat="42.95292" lon="-0.44056">
        <ele>709.590332</ele>
        <time>2014-03-31T12:49:55Z</time>
      </trkpt>
      <trkpt lat="42.9528" lon="-0.44069">
        <ele>709.590332</ele>
        <time>2014-03-31T12:50:09Z</time>
      </trkpt>
      <trkpt lat="42.95269" lon="-0.44074">
        <ele>710.070801</ele>
        <time>2014-03-31T12:50:20Z</time>
      </trkpt>
      <trkpt lat="42.95263" lon="-0.44085">
        <ele>710.070801</ele>
        <time>2014-03-31T12:50:33Z</time>
      </trkpt>
      <trkpt lat="42.95254" lon="-0.44095">
        <ele>711.512939</ele>
        <time>2014-03-31T12:50:46Z</time>
      </trkpt>
      <trkpt lat="42.95249" lon="-0.44103">
        <ele>711.512939</ele>
        <time>2014-03-31T12:50:58Z</time>
      </trkpt>
      <trkpt lat="42.95241" lon="-0.44111">
        <ele>710.551514</ele>
        <time>2014-03-31T12:51:11Z</time>
      </trkpt>
      <trkpt lat="42.95233" lon="-0.44114">
        <ele>709.590332</ele>
        <time>2014-03-31T12:51:23Z</time>
      </trkpt>
      <trkpt lat="42.95222" lon="-0.44112">
        <ele>708.628906</ele>
        <time>2014-03-31T12:51:36Z</time>
      </trkpt>
      <trkpt lat="42.95216" lon="-0.44117">
        <ele>708.148438</ele>
        <time>2014-03-31T12:51:41Z</time>
      </trkpt>
      <trkpt lat="42.95198" lon="-0.44129">
        <ele>708.148438</ele>
        <time>2014-03-31T12:51:58Z</time>
      </trkpt>
      <trkpt lat="42.95185" lon="-0.44139">
        <ele>708.148438</ele>
        <time>2014-03-31T12:52:14Z</time>
      </trkpt>
      <trkpt lat="42.95178" lon="-0.44145">
        <ele>708.628906</ele>
        <time>2014-03-31T12:52:26Z</time>
      </trkpt>
      <trkpt lat="42.95171" lon="-0.44151">
        <ele>709.590332</ele>
        <time>2014-03-31T12:52:38Z</time>
      </trkpt>
      <trkpt lat="42.95156" lon="-0.4416">
        <ele>711.032227</ele>
        <time>2014-03-31T12:52:54Z</time>
      </trkpt>
      <trkpt lat="42.95151" lon="-0.44167">
        <ele>711.032227</ele>
        <time>2014-03-31T12:53:05Z</time>
      </trkpt>
      <trkpt lat="42.95149" lon="-0.44168">
        <ele>710.551514</ele>
        <time>2014-03-31T12:53:08Z</time>
      </trkpt>
      <trkpt lat="42.95137" lon="-0.44169">
        <ele>710.551514</ele>
        <time>2014-03-31T12:53:20Z</time>
      </trkpt>
      <trkpt lat="42.9512" lon="-0.4417">
        <ele>709.590332</ele>
        <time>2014-03-31T12:53:35Z</time>
      </trkpt>
      <trkpt lat="42.95119" lon="-0.4417">
        <ele>710.070801</ele>
        <time>2014-03-31T12:53:36Z</time>
      </trkpt>
      <trkpt lat="42.95108" lon="-0.44177">
        <ele>708.628906</ele>
        <time>2014-03-31T12:53:50Z</time>
      </trkpt>
      <trkpt lat="42.95099" lon="-0.44184">
        <ele>708.628906</ele>
        <time>2014-03-31T12:54:00Z</time>
      </trkpt>
      <trkpt lat="42.95083" lon="-0.44197">
        <ele>708.148438</ele>
        <time>2014-03-31T12:54:16Z</time>
      </trkpt>
      <trkpt lat="42.9508" lon="-0.44201">
        <ele>708.148438</ele>
        <time>2014-03-31T12:54:20Z</time>
      </trkpt>
      <trkpt lat="42.95077" lon="-0.44206">
        <ele>707.667725</ele>
        <time>2014-03-31T12:54:24Z</time>
      </trkpt>
      <trkpt lat="42.95068" lon="-0.44224">
        <ele>708.628906</ele>
        <time>2014-03-31T12:54:41Z</time>
      </trkpt>
      <trkpt lat="42.95064" lon="-0.4423">
        <ele>709.590332</ele>
        <time>2014-03-31T12:54:48Z</time>
      </trkpt>
      <trkpt lat="42.9506" lon="-0.44247">
        <ele>712.474121</ele>
        <time>2014-03-31T12:55:04Z</time>
      </trkpt>
      <trkpt lat="42.95057" lon="-0.44258">
        <ele>712.474121</ele>
        <time>2014-03-31T12:55:14Z</time>
      </trkpt>
      <trkpt lat="42.95048" lon="-0.44273">
        <ele>712.474121</ele>
        <time>2014-03-31T12:55:29Z</time>
      </trkpt>
      <trkpt lat="42.95042" lon="-0.44285">
        <ele>711.032227</ele>
        <time>2014-03-31T12:55:40Z</time>
      </trkpt>
      <trkpt lat="42.95037" lon="-0.4429">
        <ele>711.512939</ele>
        <time>2014-03-31T12:55:46Z</time>
      </trkpt>
      <trkpt lat="42.95032" lon="-0.44298">
        <ele>711.512939</ele>
        <time>2014-03-31T12:55:57Z</time>
      </trkpt>
      <trkpt lat="42.95025" lon="-0.44304">
        <ele>711.032227</ele>
        <time>2014-03-31T12:56:06Z</time>
      </trkpt>
      <trkpt lat="42.9503" lon="-0.44307">
        <ele>710.551514</ele>
        <time>2014-03-31T12:56:21Z</time>
      </trkpt>
      <trkpt lat="42.95024" lon="-0.44291">
        <ele>710.551514</ele>
        <time>2014-03-31T12:56:37Z</time>
      </trkpt>
      <trkpt lat="42.95017" lon="-0.44303">
        <ele>711.993652</ele>
        <time>2014-03-31T12:56:47Z</time>
      </trkpt>
      <trkpt lat="42.95019" lon="-0.44323">
        <ele>711.512939</ele>
        <time>2014-03-31T12:57:06Z</time>
      </trkpt>
      <trkpt lat="42.95016" lon="-0.44331">
        <ele>711.993652</ele>
        <time>2014-03-31T12:57:19Z</time>
      </trkpt>
      <trkpt lat="42.95012" lon="-0.44336">
        <ele>712.954834</ele>
        <time>2014-03-31T12:57:29Z</time>
      </trkpt>
      <trkpt lat="42.95005" lon="-0.44335">
        <ele>712.954834</ele>
        <time>2014-03-31T12:57:40Z</time>
      </trkpt>
      <trkpt lat="42.94996" lon="-0.44338">
        <ele>713.435547</ele>
        <time>2014-03-31T12:57:53Z</time>
      </trkpt>
      <trkpt lat="42.95002" lon="-0.44342">
        <ele>713.916016</ele>
        <time>2014-03-31T12:58:18Z</time>
      </trkpt>
      <trkpt lat="42.95003" lon="-0.44342">
        <ele>713.435547</ele>
        <time>2014-03-31T12:58:46Z</time>
      </trkpt>
      <trkpt lat="42.95006" lon="-0.44341">
        <ele>714.396729</ele>
        <time>2014-03-31T12:59:04Z</time>
      </trkpt>
      <trkpt lat="42.94999" lon="-0.4434">
        <ele>712.954834</ele>
        <time>2014-03-31T12:59:28Z</time>
      </trkpt>
      <trkpt lat="42.94994" lon="-0.44339">
        <ele>711.032227</ele>
        <time>2014-03-31T12:59:50Z</time>
      </trkpt>
      <trkpt lat="42.95003" lon="-0.4435">
        <ele>712.474121</ele>
        <time>2014-03-31T13:00:23Z</time>
      </trkpt>
      <trkpt lat="42.94999" lon="-0.44344">
        <ele>712.474121</ele>
        <time>2014-03-31T13:00:43Z</time>
      </trkpt>
      <trkpt lat="42.94994" lon="-0.44339">
        <ele>711.512939</ele>
        <time>2014-03-31T13:00:56Z</time>
      </trkpt>
      <trkpt lat="42.94999" lon="-0.44343">
        <ele>710.551514</ele>
        <time>2014-03-31T13:01:14Z</time>
      </trkpt>
      <trkpt lat="42.94997" lon="-0.44344">
        <ele>709.109619</ele>
        <time>2014-03-31T13:02:03Z</time>
      </trkpt>
      <trkpt lat="42.95" lon="-0.44338">
        <ele>709.109619</ele>
        <time>2014-03-31T13:02:34Z</time>
      </trkpt>
      <trkpt lat="42.95" lon="-0.44343">
        <ele>706.706299</ele>
        <time>2014-03-31T13:03:31Z</time>
      </trkpt>
      <trkpt lat="42.94988" lon="-0.44335">
        <ele>707.187012</ele>
        <time>2014-03-31T13:03:55Z</time>
      </trkpt>
      <trkpt lat="42.94986" lon="-0.44336">
        <ele>706.706299</ele>
        <time>2014-03-31T13:03:57Z</time>
      </trkpt>
      <trkpt lat="42.94975" lon="-0.44344">
        <ele>706.225586</ele>
        <time>2014-03-31T13:04:11Z</time>
      </trkpt>
      <trkpt lat="42.94975" lon="-0.44347">
        <ele>704.783691</ele>
        <time>2014-03-31T13:04:25Z</time>
      </trkpt>
      <trkpt lat="42.94975" lon="-0.44357">
        <ele>705.264404</ele>
        <time>2014-03-31T13:06:07Z</time>
      </trkpt>
      <trkpt lat="42.94973" lon="-0.44347">
        <ele>704.783691</ele>
        <time>2014-03-31T13:06:27Z</time>
      </trkpt>
      <trkpt lat="42.94958" lon="-0.44342">
        <ele>704.783691</ele>
        <time>2014-03-31T13:06:43Z</time>
      </trkpt>
      <trkpt lat="42.94955" lon="-0.44342">
        <ele>704.303223</ele>
        <time>2014-03-31T13:06:45Z</time>
      </trkpt>
      <trkpt lat="42.94946" lon="-0.44338">
        <ele>703.341797</ele>
        <time>2014-03-31T13:06:53Z</time>
      </trkpt>
      <trkpt lat="42.94938" lon="-0.44331">
        <ele>701.419189</ele>
        <time>2014-03-31T13:07:10Z</time>
      </trkpt>
      <trkpt lat="42.94936" lon="-0.44332">
        <ele>701.419189</ele>
        <time>2014-03-31T13:07:16Z</time>
      </trkpt>
      <trkpt lat="42.94919" lon="-0.44338">
        <ele>703.341797</ele>
        <time>2014-03-31T13:07:37Z</time>
      </trkpt>
      <trkpt lat="42.94917" lon="-0.44338">
        <ele>702.380371</ele>
        <time>2014-03-31T13:07:42Z</time>
      </trkpt>
      <trkpt lat="42.94916" lon="-0.4434">
        <ele>703.341797</ele>
        <time>2014-03-31T13:07:57Z</time>
      </trkpt>
      <trkpt lat="42.94917" lon="-0.44341">
        <ele>702.861084</ele>
        <time>2014-03-31T13:08:24Z</time>
      </trkpt>
      <trkpt lat="42.94918" lon="-0.44338">
        <ele>702.380371</ele>
        <time>2014-03-31T13:08:48Z</time>
      </trkpt>
      <trkpt lat="42.94917" lon="-0.44337">
        <ele>701.899902</ele>
        <time>2014-03-31T13:09:23Z</time>
      </trkpt>
      <trkpt lat="42.94927" lon="-0.44339">
        <ele>702.380371</ele>
        <time>2014-03-31T13:09:45Z</time>
      </trkpt>
      <trkpt lat="42.94921" lon="-0.44331">
        <ele>702.861084</ele>
        <time>2014-03-31T13:10:51Z</time>
      </trkpt>
      <trkpt lat="42.94926" lon="-0.4431">
        <ele>703.341797</ele>
        <time>2014-03-31T13:11:34Z</time>
      </trkpt>
      <trkpt lat="42.94928" lon="-0.44323">
        <ele>703.341797</ele>
        <time>2014-03-31T13:12:03Z</time>
      </trkpt>
      <trkpt lat="42.94934" lon="-0.44332">
        <ele>702.380371</ele>
        <time>2014-03-31T13:12:26Z</time>
      </trkpt>
      <trkpt lat="42.94925" lon="-0.4433">
        <ele>702.861084</ele>
        <time>2014-03-31T13:12:47Z</time>
      </trkpt>
      <trkpt lat="42.94909" lon="-0.44329">
        <ele>703.341797</ele>
        <time>2014-03-31T13:12:56Z</time>
      </trkpt>
      <trkpt lat="42.94883" lon="-0.44323">
        <ele>703.82251</ele>
        <time>2014-03-31T13:13:13Z</time>
      </trkpt>
      <trkpt lat="42.94875" lon="-0.44324">
        <ele>705.264404</ele>
        <time>2014-03-31T13:13:27Z</time>
      </trkpt>
      <trkpt lat="42.9487" lon="-0.44332">
        <ele>706.225586</ele>
        <time>2014-03-31T13:13:45Z</time>
      </trkpt>
      <trkpt lat="42.94862" lon="-0.44336">
        <ele>707.667725</ele>
        <time>2014-03-31T13:13:58Z</time>
      </trkpt>
      <trkpt lat="42.94853" lon="-0.44341">
        <ele>710.070801</ele>
        <time>2014-03-31T13:14:12Z</time>
      </trkpt>
      <trkpt lat="42.94846" lon="-0.44342">
        <ele>711.993652</ele>
        <time>2014-03-31T13:14:24Z</time>
      </trkpt>
      <trkpt lat="42.94846" lon="-0.44343">
        <ele>712.954834</ele>
        <time>2014-03-31T13:14:35Z</time>
      </trkpt>
      <trkpt lat="42.94848" lon="-0.44341">
        <ele>713.916016</ele>
        <time>2014-03-31T13:14:40Z</time>
      </trkpt>
      <trkpt lat="42.94834" lon="-0.44338">
        <ele>714.396729</ele>
        <time>2014-03-31T13:14:51Z</time>
      </trkpt>
      <trkpt lat="42.94831" lon="-0.44349">
        <ele>715.838867</ele>
        <time>2014-03-31T13:15:06Z</time>
      </trkpt>
      <trkpt lat="42.9483" lon="-0.44351">
        <ele>715.838867</ele>
        <time>2014-03-31T13:15:27Z</time>
      </trkpt>
      <trkpt lat="42.94842" lon="-0.4436">
        <ele>717.281006</ele>
        <time>2014-03-31T13:15:47Z</time>
      </trkpt>
      <trkpt lat="42.94852" lon="-0.44366">
        <ele>719.203613</ele>
        <time>2014-03-31T13:15:59Z</time>
      </trkpt>
      <trkpt lat="42.94859" lon="-0.44373">
        <ele>720.645508</ele>
        <time>2014-03-31T13:16:08Z</time>
      </trkpt>
      <trkpt lat="42.94873" lon="-0.44379">
        <ele>723.529541</ele>
        <time>2014-03-31T13:16:21Z</time>
      </trkpt>
      <trkpt lat="42.94884" lon="-0.44381">
        <ele>726.41333</ele>
        <time>2014-03-31T13:16:32Z</time>
      </trkpt>
      <trkpt lat="42.94893" lon="-0.44384">
        <ele>727.374756</ele>
        <time>2014-03-31T13:16:43Z</time>
      </trkpt>
      <trkpt lat="42.94901" lon="-0.44386">
        <ele>728.335938</ele>
        <time>2014-03-31T13:16:54Z</time>
      </trkpt>
      <trkpt lat="42.94908" lon="-0.44389">
        <ele>730.739258</ele>
        <time>2014-03-31T13:17:05Z</time>
      </trkpt>
      <trkpt lat="42.94924" lon="-0.444">
        <ele>733.142578</ele>
        <time>2014-03-31T13:17:18Z</time>
      </trkpt>
      <trkpt lat="42.94928" lon="-0.44401">
        <ele>734.584717</ele>
        <time>2014-03-31T13:17:29Z</time>
      </trkpt>
      <trkpt lat="42.94937" lon="-0.44402">
        <ele>736.507324</ele>
        <time>2014-03-31T13:17:41Z</time>
      </trkpt>
      <trkpt lat="42.94947" lon="-0.44405">
        <ele>739.391113</ele>
        <time>2014-03-31T13:17:57Z</time>
      </trkpt>
      <trkpt lat="42.94951" lon="-0.44401">
        <ele>742.755859</ele>
        <time>2014-03-31T13:18:18Z</time>
      </trkpt>
      <trkpt lat="42.94947" lon="-0.44407">
        <ele>744.678223</ele>
        <time>2014-03-31T13:18:32Z</time>
      </trkpt>
      <trkpt lat="42.94948" lon="-0.44414">
        <ele>746.120361</ele>
        <time>2014-03-31T13:18:45Z</time>
      </trkpt>
      <trkpt lat="42.94934" lon="-0.4441">
        <ele>748.523682</ele>
        <time>2014-03-31T13:19:01Z</time>
      </trkpt>
      <trkpt lat="42.94928" lon="-0.44412">
        <ele>750.446533</ele>
        <time>2014-03-31T13:19:09Z</time>
      </trkpt>
      <trkpt lat="42.94924" lon="-0.44414">
        <ele>750.446533</ele>
        <time>2014-03-31T13:19:15Z</time>
      </trkpt>
      <trkpt lat="42.94914" lon="-0.4442">
        <ele>752.849609</ele>
        <time>2014-03-31T13:19:28Z</time>
      </trkpt>
      <trkpt lat="42.94903" lon="-0.44419">
        <ele>754.291748</ele>
        <time>2014-03-31T13:19:42Z</time>
      </trkpt>
      <trkpt lat="42.94895" lon="-0.44417">
        <ele>756.214111</ele>
        <time>2014-03-31T13:19:54Z</time>
      </trkpt>
      <trkpt lat="42.94897" lon="-0.44425">
        <ele>756.214111</ele>
        <time>2014-03-31T13:20:05Z</time>
      </trkpt>
      <trkpt lat="42.94892" lon="-0.44439">
        <ele>759.578857</ele>
        <time>2014-03-31T13:20:23Z</time>
      </trkpt>
      <trkpt lat="42.94899" lon="-0.44437">
        <ele>760.540039</ele>
        <time>2014-03-31T13:20:40Z</time>
      </trkpt>
      <trkpt lat="42.94897" lon="-0.44428">
        <ele>763.904541</ele>
        <time>2014-03-31T13:20:55Z</time>
      </trkpt>
      <trkpt lat="42.94907" lon="-0.44428">
        <ele>766.308105</ele>
        <time>2014-03-31T13:21:12Z</time>
      </trkpt>
      <trkpt lat="42.9491" lon="-0.44418">
        <ele>768.230713</ele>
        <time>2014-03-31T13:21:25Z</time>
      </trkpt>
      <trkpt lat="42.94913" lon="-0.44417">
        <ele>770.634033</ele>
        <time>2014-03-31T13:21:40Z</time>
      </trkpt>
      <trkpt lat="42.9491" lon="-0.4443">
        <ele>772.075928</ele>
        <time>2014-03-31T13:21:56Z</time>
      </trkpt>
      <trkpt lat="42.94906" lon="-0.44437">
        <ele>773.998535</ele>
        <time>2014-03-31T13:22:07Z</time>
      </trkpt>
      <trkpt lat="42.94899" lon="-0.44439">
        <ele>776.401855</ele>
        <time>2014-03-31T13:22:18Z</time>
      </trkpt>
      <trkpt lat="42.94894" lon="-0.44442">
        <ele>777.84375</ele>
        <time>2014-03-31T13:22:30Z</time>
      </trkpt>
      <trkpt lat="42.94898" lon="-0.44451">
        <ele>781.20874</ele>
        <time>2014-03-31T13:22:55Z</time>
      </trkpt>
      <trkpt lat="42.94887" lon="-0.44458">
        <ele>783.611816</ele>
        <time>2014-03-31T13:23:17Z</time>
      </trkpt>
      <trkpt lat="42.94873" lon="-0.4446">
        <ele>785.053955</ele>
        <time>2014-03-31T13:23:29Z</time>
      </trkpt>
      <trkpt lat="42.94867" lon="-0.44458">
        <ele>786.015137</ele>
        <time>2014-03-31T13:23:45Z</time>
      </trkpt>
      <trkpt lat="42.94858" lon="-0.4445">
        <ele>787.457031</ele>
        <time>2014-03-31T13:24:00Z</time>
      </trkpt>
      <trkpt lat="42.94846" lon="-0.44447">
        <ele>790.821533</ele>
        <time>2014-03-31T13:24:13Z</time>
      </trkpt>
      <trkpt lat="42.94834" lon="-0.44446">
        <ele>793.224854</ele>
        <time>2014-03-31T13:24:27Z</time>
      </trkpt>
      <trkpt lat="42.94823" lon="-0.44442">
        <ele>794.186279</ele>
        <time>2014-03-31T13:24:41Z</time>
      </trkpt>
      <trkpt lat="42.94807" lon="-0.4444">
        <ele>794.666748</ele>
        <time>2014-03-31T13:24:54Z</time>
      </trkpt>
      <trkpt lat="42.94794" lon="-0.44439">
        <ele>798.031738</ele>
        <time>2014-03-31T13:25:09Z</time>
      </trkpt>
      <trkpt lat="42.94782" lon="-0.44439">
        <ele>799.954346</ele>
        <time>2014-03-31T13:25:23Z</time>
      </trkpt>
      <trkpt lat="42.94775" lon="-0.44448">
        <ele>802.838135</ele>
        <time>2014-03-31T13:25:36Z</time>
      </trkpt>
      <trkpt lat="42.94769" lon="-0.44466">
        <ele>803.318848</ele>
        <time>2014-03-31T13:25:55Z</time>
      </trkpt>
      <trkpt lat="42.94767" lon="-0.4448">
        <ele>806.202637</ele>
        <time>2014-03-31T13:26:10Z</time>
      </trkpt>
      <trkpt lat="42.94767" lon="-0.44501">
        <ele>808.605957</ele>
        <time>2014-03-31T13:26:29Z</time>
      </trkpt>
      <trkpt lat="42.94772" lon="-0.44506">
        <ele>810.528564</ele>
        <time>2014-03-31T13:26:43Z</time>
      </trkpt>
      <trkpt lat="42.94772" lon="-0.44504">
        <ele>810.528564</ele>
        <time>2014-03-31T13:26:44Z</time>
      </trkpt>
      <trkpt lat="42.94768" lon="-0.44482">
        <ele>812.932129</ele>
        <time>2014-03-31T13:26:59Z</time>
      </trkpt>
      <trkpt lat="42.94778" lon="-0.4448">
        <ele>814.854736</ele>
        <time>2014-03-31T13:27:14Z</time>
      </trkpt>
      <trkpt lat="42.94786" lon="-0.44474">
        <ele>816.777344</ele>
        <time>2014-03-31T13:27:28Z</time>
      </trkpt>
      <trkpt lat="42.94795" lon="-0.44469">
        <ele>817.738525</ele>
        <time>2014-03-31T13:27:43Z</time>
      </trkpt>
      <trkpt lat="42.94802" lon="-0.4447">
        <ele>820.622559</ele>
        <time>2014-03-31T13:27:54Z</time>
      </trkpt>
      <trkpt lat="42.94803" lon="-0.44471">
        <ele>821.103271</ele>
        <time>2014-03-31T13:27:56Z</time>
      </trkpt>
      <trkpt lat="42.94811" lon="-0.44477">
        <ele>823.025879</ele>
        <time>2014-03-31T13:28:08Z</time>
      </trkpt>
      <trkpt lat="42.94822" lon="-0.44481">
        <ele>824.467773</ele>
        <time>2014-03-31T13:28:22Z</time>
      </trkpt>
      <trkpt lat="42.94833" lon="-0.44491">
        <ele>825.428955</ele>
        <time>2014-03-31T13:28:39Z</time>
      </trkpt>
      <trkpt lat="42.94839" lon="-0.44499">
        <ele>826.871094</ele>
        <time>2014-03-31T13:28:52Z</time>
      </trkpt>
      <trkpt lat="42.94842" lon="-0.44503">
        <ele>828.793945</ele>
        <time>2014-03-31T13:29:07Z</time>
      </trkpt>
      <trkpt lat="42.94851" lon="-0.44512">
        <ele>831.197266</ele>
        <time>2014-03-31T13:29:24Z</time>
      </trkpt>
      <trkpt lat="42.94851" lon="-0.44519">
        <ele>831.677734</ele>
        <time>2014-03-31T13:29:40Z</time>
      </trkpt>
      <trkpt lat="42.94846" lon="-0.44511">
        <ele>830.716553</ele>
        <time>2014-03-31T13:29:53Z</time>
      </trkpt>
      <trkpt lat="42.94836" lon="-0.445">
        <ele>829.755127</ele>
        <time>2014-03-31T13:30:10Z</time>
      </trkpt>
      <trkpt lat="42.94832" lon="-0.44493">
        <ele>829.274414</ele>
        <time>2014-03-31T13:30:19Z</time>
      </trkpt>
      <trkpt lat="42.94819" lon="-0.44485">
        <ele>826.871094</ele>
        <time>2014-03-31T13:30:34Z</time>
      </trkpt>
      <trkpt lat="42.94799" lon="-0.44484">
        <ele>823.987061</ele>
        <time>2014-03-31T13:30:51Z</time>
      </trkpt>
      <trkpt lat="42.94798" lon="-0.44484">
        <ele>823.987061</ele>
        <time>2014-03-31T13:30:52Z</time>
      </trkpt>
      <trkpt lat="42.94788" lon="-0.44482">
        <ele>822.545166</ele>
        <time>2014-03-31T13:31:09Z</time>
      </trkpt>
      <trkpt lat="42.94775" lon="-0.44478">
        <ele>822.545166</ele>
        <time>2014-03-31T13:31:26Z</time>
      </trkpt>
      <trkpt lat="42.94772" lon="-0.44492">
        <ele>821.58374</ele>
        <time>2014-03-31T13:31:35Z</time>
      </trkpt>
      <trkpt lat="42.94776" lon="-0.44536">
        <ele>817.738525</ele>
        <time>2014-03-31T13:31:57Z</time>
      </trkpt>
      <trkpt lat="42.94776" lon="-0.44548">
        <ele>816.296631</ele>
        <time>2014-03-31T13:32:06Z</time>
      </trkpt>
      <trkpt lat="42.94776" lon="-0.44561">
        <ele>816.296631</ele>
        <time>2014-03-31T13:32:15Z</time>
      </trkpt>
      <trkpt lat="42.94777" lon="-0.44579">
        <ele>813.412842</ele>
        <time>2014-03-31T13:32:28Z</time>
      </trkpt>
      <trkpt lat="42.94777" lon="-0.44613">
        <ele>811.970703</ele>
        <time>2014-03-31T13:32:52Z</time>
      </trkpt>
      <trkpt lat="42.94774" lon="-0.44625">
        <ele>811.970703</ele>
        <time>2014-03-31T13:33:05Z</time>
      </trkpt>
      <trkpt lat="42.94762" lon="-0.44647">
        <ele>809.567383</ele>
        <time>2014-03-31T13:33:26Z</time>
      </trkpt>
      <trkpt lat="42.94756" lon="-0.44656">
        <ele>807.644775</ele>
        <time>2014-03-31T13:33:34Z</time>
      </trkpt>
      <trkpt lat="42.94751" lon="-0.44663">
        <ele>807.164063</ele>
        <time>2014-03-31T13:33:49Z</time>
      </trkpt>
      <trkpt lat="42.9476" lon="-0.44655">
        <ele>806.68335</ele>
        <time>2014-03-31T13:34:01Z</time>
      </trkpt>
      <trkpt lat="42.94772" lon="-0.44623">
        <ele>802.838135</ele>
        <time>2014-03-31T13:34:21Z</time>
      </trkpt>
      <trkpt lat="42.94779" lon="-0.44597">
        <ele>800.915527</ele>
        <time>2014-03-31T13:34:39Z</time>
      </trkpt>
      <trkpt lat="42.94786" lon="-0.44574">
        <ele>799.473633</ele>
        <time>2014-03-31T13:34:56Z</time>
      </trkpt>
      <trkpt lat="42.94784" lon="-0.44557">
        <ele>798.512207</ele>
        <time>2014-03-31T13:35:11Z</time>
      </trkpt>
      <trkpt lat="42.94789" lon="-0.44539">
        <ele>797.551025</ele>
        <time>2014-03-31T13:35:27Z</time>
      </trkpt>
      <trkpt lat="42.94793" lon="-0.44527">
        <ele>797.070313</ele>
        <time>2014-03-31T13:35:38Z</time>
      </trkpt>
      <trkpt lat="42.948" lon="-0.44501">
        <ele>794.666748</ele>
        <time>2014-03-31T13:35:58Z</time>
      </trkpt>
      <trkpt lat="42.94802" lon="-0.44495">
        <ele>794.666748</ele>
        <time>2014-03-31T13:36:02Z</time>
      </trkpt>
      <trkpt lat="42.94806" lon="-0.44471">
        <ele>793.224854</ele>
        <time>2014-03-31T13:36:20Z</time>
      </trkpt>
      <trkpt lat="42.94805" lon="-0.44444">
        <ele>792.263672</ele>
        <time>2014-03-31T13:36:39Z</time>
      </trkpt>
      <trkpt lat="42.94809" lon="-0.44435">
        <ele>793.224854</ele>
        <time>2014-03-31T13:36:52Z</time>
      </trkpt>
      <trkpt lat="42.94801" lon="-0.44431">
        <ele>793.705566</ele>
        <time>2014-03-31T13:37:01Z</time>
      </trkpt>
      <trkpt lat="42.9475" lon="-0.44424">
        <ele>794.666748</ele>
        <time>2014-03-31T13:37:24Z</time>
      </trkpt>
      <trkpt lat="42.94702" lon="-0.44421">
        <ele>793.224854</ele>
        <time>2014-03-31T13:37:42Z</time>
      </trkpt>
      <trkpt lat="42.94669" lon="-0.44415">
        <ele>789.860352</ele>
        <time>2014-03-31T13:37:56Z</time>
      </trkpt>
      <trkpt lat="42.94652" lon="-0.44411">
        <ele>789.860352</ele>
        <time>2014-03-31T13:38:05Z</time>
      </trkpt>
      <trkpt lat="42.94636" lon="-0.44407">
        <ele>788.89917</ele>
        <time>2014-03-31T13:38:14Z</time>
      </trkpt>
      <trkpt lat="42.94616" lon="-0.44401">
        <ele>788.89917</ele>
        <time>2014-03-31T13:38:25Z</time>
      </trkpt>
      <trkpt lat="42.94579" lon="-0.44397">
        <ele>787.457031</ele>
        <time>2014-03-31T13:38:40Z</time>
      </trkpt>
      <trkpt lat="42.94536" lon="-0.44394">
        <ele>785.053955</ele>
        <time>2014-03-31T13:38:58Z</time>
      </trkpt>
      <trkpt lat="42.94517" lon="-0.44388">
        <ele>783.131104</ele>
        <time>2014-03-31T13:39:17Z</time>
      </trkpt>
      <trkpt lat="42.94492" lon="-0.44386">
        <ele>782.169922</ele>
        <time>2014-03-31T13:39:38Z</time>
      </trkpt>
      <trkpt lat="42.94472" lon="-0.44383">
        <ele>779.766357</ele>
        <time>2014-03-31T13:39:57Z</time>
      </trkpt>
      <trkpt lat="42.9445" lon="-0.4438">
        <ele>776.882568</ele>
        <time>2014-03-31T13:40:17Z</time>
      </trkpt>
      <trkpt lat="42.94429" lon="-0.44377">
        <ele>773.518066</ele>
        <time>2014-03-31T13:40:36Z</time>
      </trkpt>
      <trkpt lat="42.94418" lon="-0.4438">
        <ele>772.556641</ele>
        <time>2014-03-31T13:40:48Z</time>
      </trkpt>
      <trkpt lat="42.94406" lon="-0.4438">
        <ele>772.075928</ele>
        <time>2014-03-31T13:40:59Z</time>
      </trkpt>
      <trkpt lat="42.94403" lon="-0.44381">
        <ele>770.634033</ele>
        <time>2014-03-31T13:41:02Z</time>
      </trkpt>
      <trkpt lat="42.94385" lon="-0.44384">
        <ele>767.75</ele>
        <time>2014-03-31T13:41:18Z</time>
      </trkpt>
      <trkpt lat="42.94368" lon="-0.44387">
        <ele>765.827637</ele>
        <time>2014-03-31T13:41:36Z</time>
      </trkpt>
      <trkpt lat="42.9435" lon="-0.44385">
        <ele>764.866211</ele>
        <time>2014-03-31T13:41:53Z</time>
      </trkpt>
      <trkpt lat="42.94328" lon="-0.4438">
        <ele>761.982178</ele>
        <time>2014-03-31T13:42:11Z</time>
      </trkpt>
      <trkpt lat="42.94311" lon="-0.44382">
        <ele>759.578857</ele>
        <time>2014-03-31T13:42:28Z</time>
      </trkpt>
      <trkpt lat="42.94292" lon="-0.44382">
        <ele>758.136963</ele>
        <time>2014-03-31T13:42:45Z</time>
      </trkpt>
      <trkpt lat="42.94274" lon="-0.44379">
        <ele>756.214111</ele>
        <time>2014-03-31T13:43:01Z</time>
      </trkpt>
      <trkpt lat="42.94251" lon="-0.44378">
        <ele>754.291748</ele>
        <time>2014-03-31T13:43:20Z</time>
      </trkpt>
      <trkpt lat="42.94241" lon="-0.44381">
        <ele>754.291748</ele>
        <time>2014-03-31T13:43:35Z</time>
      </trkpt>
      <trkpt lat="42.94242" lon="-0.44384">
        <ele>753.811035</ele>
        <time>2014-03-31T13:43:50Z</time>
      </trkpt>
      <trkpt lat="42.94226" lon="-0.44378">
        <ele>752.849609</ele>
        <time>2014-03-31T13:44:04Z</time>
      </trkpt>
      <trkpt lat="42.94215" lon="-0.44379">
        <ele>751.407715</ele>
        <time>2014-03-31T13:44:14Z</time>
      </trkpt>
      <trkpt lat="42.94211" lon="-0.44379">
        <ele>751.407715</ele>
        <time>2014-03-31T13:44:17Z</time>
      </trkpt>
      <trkpt lat="42.94205" lon="-0.44388">
        <ele>750.446533</ele>
        <time>2014-03-31T13:44:34Z</time>
      </trkpt>
      <trkpt lat="42.9421" lon="-0.44403">
        <ele>749.96582</ele>
        <time>2014-03-31T13:45:03Z</time>
      </trkpt>
      <trkpt lat="42.94208" lon="-0.44403">
        <ele>749.485107</ele>
        <time>2014-03-31T13:45:42Z</time>
      </trkpt>
      <trkpt lat="42.94209" lon="-0.44396">
        <ele>749.485107</ele>
        <time>2014-03-31T13:46:29Z</time>
      </trkpt>
      <trkpt lat="42.94207" lon="-0.44395">
        <ele>749.96582</ele>
        <time>2014-03-31T13:46:31Z</time>
      </trkpt>
      <trkpt lat="42.94198" lon="-0.44392">
        <ele>750.446533</ele>
        <time>2014-03-31T13:46:41Z</time>
      </trkpt>
      <trkpt lat="42.94187" lon="-0.44391">
        <ele>750.446533</ele>
        <time>2014-03-31T13:46:54Z</time>
      </trkpt>
      <trkpt lat="42.94177" lon="-0.44388">
        <ele>750.446533</ele>
        <time>2014-03-31T13:47:10Z</time>
      </trkpt>
      <trkpt lat="42.9416" lon="-0.44391">
        <ele>750.927002</ele>
        <time>2014-03-31T13:47:27Z</time>
      </trkpt>
      <trkpt lat="42.94149" lon="-0.44389">
        <ele>750.927002</ele>
        <time>2014-03-31T13:47:39Z</time>
      </trkpt>
      <trkpt lat="42.94139" lon="-0.44387">
        <ele>750.446533</ele>
        <time>2014-03-31T13:47:49Z</time>
      </trkpt>
      <trkpt lat="42.94136" lon="-0.44386">
        <ele>750.927002</ele>
        <time>2014-03-31T13:47:52Z</time>
      </trkpt>
      <trkpt lat="42.94126" lon="-0.44383">
        <ele>750.446533</ele>
        <time>2014-03-31T13:48:02Z</time>
      </trkpt>
      <trkpt lat="42.94099" lon="-0.4439">
        <ele>750.446533</ele>
        <time>2014-03-31T13:49:04Z</time>
      </trkpt>
      <trkpt lat="42.94088" lon="-0.44392">
        <ele>750.446533</ele>
        <time>2014-03-31T13:49:14Z</time>
      </trkpt>
      <trkpt lat="42.9408" lon="-0.44395">
        <ele>750.927002</ele>
        <time>2014-03-31T13:49:22Z</time>
      </trkpt>
      <trkpt lat="42.94068" lon="-0.44396">
        <ele>752.368896</ele>
        <time>2014-03-31T13:49:34Z</time>
      </trkpt>
      <trkpt lat="42.94064" lon="-0.44408">
        <ele>751.888428</ele>
        <time>2014-03-31T13:49:44Z</time>
      </trkpt>
      <trkpt lat="42.94052" lon="-0.44412">
        <ele>752.368896</ele>
        <time>2014-03-31T13:50:01Z</time>
      </trkpt>
      <trkpt lat="42.94041" lon="-0.44427">
        <ele>753.811035</ele>
        <time>2014-03-31T13:52:33Z</time>
      </trkpt>
      <trkpt lat="42.9404" lon="-0.4443">
        <ele>755.733643</ele>
        <time>2014-03-31T13:53:12Z</time>
      </trkpt>
      <trkpt lat="42.9405" lon="-0.44413">
        <ele>756.214111</ele>
        <time>2014-03-31T13:53:35Z</time>
      </trkpt>
      <trkpt lat="42.94041" lon="-0.44409">
        <ele>754.772217</ele>
        <time>2014-03-31T13:53:52Z</time>
      </trkpt>
      <trkpt lat="42.94029" lon="-0.44403">
        <ele>754.772217</ele>
        <time>2014-03-31T13:54:46Z</time>
      </trkpt>
      <trkpt lat="42.9402" lon="-0.44399">
        <ele>755.733643</ele>
        <time>2014-03-31T13:54:59Z</time>
      </trkpt>
      <trkpt lat="42.94009" lon="-0.44397">
        <ele>755.25293</ele>
        <time>2014-03-31T13:55:11Z</time>
      </trkpt>
      <trkpt lat="42.93998" lon="-0.44396">
        <ele>755.733643</ele>
        <time>2014-03-31T13:55:22Z</time>
      </trkpt>
      <trkpt lat="42.93986" lon="-0.44398">
        <ele>755.25293</ele>
        <time>2014-03-31T13:55:26Z</time>
      </trkpt>
      <trkpt lat="42.93976" lon="-0.44395">
        <ele>756.694824</ele>
        <time>2014-03-31T13:55:40Z</time>
      </trkpt>
      <trkpt lat="42.93961" lon="-0.44395">
        <ele>758.136963</ele>
        <time>2014-03-31T13:55:56Z</time>
      </trkpt>
      <trkpt lat="42.93951" lon="-0.44396">
        <ele>757.65625</ele>
        <time>2014-03-31T13:56:07Z</time>
      </trkpt>
      <trkpt lat="42.93943" lon="-0.44382">
        <ele>755.733643</ele>
        <time>2014-03-31T13:56:24Z</time>
      </trkpt>
      <trkpt lat="42.9393" lon="-0.44377">
        <ele>755.733643</ele>
        <time>2014-03-31T13:56:42Z</time>
      </trkpt>
      <trkpt lat="42.9391" lon="-0.4438">
        <ele>754.291748</ele>
        <time>2014-03-31T13:57:10Z</time>
      </trkpt>
      <trkpt lat="42.9391" lon="-0.44373">
        <ele>754.291748</ele>
        <time>2014-03-31T14:01:38Z</time>
      </trkpt>
      <trkpt lat="42.93907" lon="-0.4436">
        <ele>754.772217</ele>
        <time>2014-03-31T14:01:48Z</time>
      </trkpt>
      <trkpt lat="42.93901" lon="-0.44355">
        <ele>753.330322</ele>
        <time>2014-03-31T14:01:53Z</time>
      </trkpt>
      <trkpt lat="42.93897" lon="-0.44343">
        <ele>754.291748</ele>
        <time>2014-03-31T14:02:04Z</time>
      </trkpt>
      <trkpt lat="42.93892" lon="-0.44327">
        <ele>753.811035</ele>
        <time>2014-03-31T14:02:19Z</time>
      </trkpt>
      <trkpt lat="42.93888" lon="-0.4432">
        <ele>756.214111</ele>
        <time>2014-03-31T14:02:29Z</time>
      </trkpt>
      <trkpt lat="42.93884" lon="-0.44307">
        <ele>756.214111</ele>
        <time>2014-03-31T14:02:43Z</time>
      </trkpt>
      <trkpt lat="42.93867" lon="-0.443">
        <ele>756.694824</ele>
        <time>2014-03-31T14:02:57Z</time>
      </trkpt>
      <trkpt lat="42.93858" lon="-0.44291">
        <ele>756.694824</ele>
        <time>2014-03-31T14:03:07Z</time>
      </trkpt>
      <trkpt lat="42.9385" lon="-0.44292">
        <ele>756.694824</ele>
        <time>2014-03-31T14:03:16Z</time>
      </trkpt>
      <trkpt lat="42.93841" lon="-0.44292">
        <ele>756.694824</ele>
        <time>2014-03-31T14:03:23Z</time>
      </trkpt>
      <trkpt lat="42.9382" lon="-0.44297">
        <ele>758.136963</ele>
        <time>2014-03-31T14:03:35Z</time>
      </trkpt>
      <trkpt lat="42.93801" lon="-0.44304">
        <ele>757.175537</ele>
        <time>2014-03-31T14:03:53Z</time>
      </trkpt>
      <trkpt lat="42.93788" lon="-0.44303">
        <ele>757.175537</ele>
        <time>2014-03-31T14:04:05Z</time>
      </trkpt>
      <trkpt lat="42.9378" lon="-0.44318">
        <ele>753.811035</ele>
        <time>2014-03-31T14:04:39Z</time>
      </trkpt>
      <trkpt lat="42.93787" lon="-0.4432">
        <ele>751.888428</ele>
        <time>2014-03-31T14:05:28Z</time>
      </trkpt>
      <trkpt lat="42.93777" lon="-0.44317">
        <ele>751.407715</ele>
        <time>2014-03-31T14:05:41Z</time>
      </trkpt>
      <trkpt lat="42.93789" lon="-0.44318">
        <ele>750.446533</ele>
        <time>2014-03-31T14:05:56Z</time>
      </trkpt>
      <trkpt lat="42.93793" lon="-0.44323">
        <ele>749.485107</ele>
        <time>2014-03-31T14:06:11Z</time>
      </trkpt>
      <trkpt lat="42.93787" lon="-0.44309">
        <ele>748.523682</ele>
        <time>2014-03-31T14:08:15Z</time>
      </trkpt>
      <trkpt lat="42.93773" lon="-0.44299">
        <ele>749.485107</ele>
        <time>2014-03-31T14:08:31Z</time>
      </trkpt>
      <trkpt lat="42.93755" lon="-0.4429">
        <ele>750.927002</ele>
        <time>2014-03-31T14:08:45Z</time>
      </trkpt>
      <trkpt lat="42.93744" lon="-0.44295">
        <ele>751.888428</ele>
        <time>2014-03-31T14:08:56Z</time>
      </trkpt>
      <trkpt lat="42.93738" lon="-0.44307">
        <ele>752.849609</ele>
        <time>2014-03-31T14:09:10Z</time>
      </trkpt>
      <trkpt lat="42.93745" lon="-0.44318">
        <ele>751.407715</ele>
        <time>2014-03-31T14:09:31Z</time>
      </trkpt>
      <trkpt lat="42.93747" lon="-0.44332">
        <ele>751.407715</ele>
        <time>2014-03-31T14:10:17Z</time>
      </trkpt>
      <trkpt lat="42.93745" lon="-0.44329">
        <ele>751.407715</ele>
        <time>2014-03-31T14:10:35Z</time>
      </trkpt>
      <trkpt lat="42.93731" lon="-0.44313">
        <ele>751.407715</ele>
        <time>2014-03-31T14:11:27Z</time>
      </trkpt>
      <trkpt lat="42.9372" lon="-0.44316">
        <ele>751.888428</ele>
        <time>2014-03-31T14:11:38Z</time>
      </trkpt>
      <trkpt lat="42.93707" lon="-0.44318">
        <ele>752.849609</ele>
        <time>2014-03-31T14:11:56Z</time>
      </trkpt>
      <trkpt lat="42.93698" lon="-0.44326">
        <ele>754.291748</ele>
        <time>2014-03-31T14:12:06Z</time>
      </trkpt>
      <trkpt lat="42.93682" lon="-0.44326">
        <ele>755.25293</ele>
        <time>2014-03-31T14:12:23Z</time>
      </trkpt>
      <trkpt lat="42.93679" lon="-0.4433">
        <ele>755.25293</ele>
        <time>2014-03-31T14:12:26Z</time>
      </trkpt>
      <trkpt lat="42.93669" lon="-0.44334">
        <ele>755.25293</ele>
        <time>2014-03-31T14:12:44Z</time>
      </trkpt>
      <trkpt lat="42.93654" lon="-0.44346">
        <ele>755.733643</ele>
        <time>2014-03-31T14:13:09Z</time>
      </trkpt>
      <trkpt lat="42.93645" lon="-0.44358">
        <ele>756.214111</ele>
        <time>2014-03-31T14:13:21Z</time>
      </trkpt>
      <trkpt lat="42.9364" lon="-0.44354">
        <ele>756.214111</ele>
        <time>2014-03-31T14:13:26Z</time>
      </trkpt>
      <trkpt lat="42.93633" lon="-0.44355">
        <ele>755.25293</ele>
        <time>2014-03-31T14:13:36Z</time>
      </trkpt>
      <trkpt lat="42.93635" lon="-0.44365">
        <ele>755.25293</ele>
        <time>2014-03-31T14:13:41Z</time>
      </trkpt>
      <trkpt lat="42.93635" lon="-0.4439">
        <ele>756.694824</ele>
        <time>2014-03-31T14:13:56Z</time>
      </trkpt>
      <trkpt lat="42.93638" lon="-0.444">
        <ele>756.214111</ele>
        <time>2014-03-31T14:15:17Z</time>
      </trkpt>
      <trkpt lat="42.93639" lon="-0.44399">
        <ele>755.733643</ele>
        <time>2014-03-31T14:15:40Z</time>
      </trkpt>
      <trkpt lat="42.93633" lon="-0.44398">
        <ele>754.772217</ele>
        <time>2014-03-31T14:17:42Z</time>
      </trkpt>
      <trkpt lat="42.93635" lon="-0.44399">
        <ele>753.330322</ele>
        <time>2014-03-31T14:19:28Z</time>
      </trkpt>
      <trkpt lat="42.93637" lon="-0.44399">
        <ele>751.888428</ele>
        <time>2014-03-31T14:22:10Z</time>
      </trkpt>
      <trkpt lat="42.93627" lon="-0.44399">
        <ele>752.368896</ele>
        <time>2014-03-31T14:22:59Z</time>
      </trkpt>
      <trkpt lat="42.93619" lon="-0.44398">
        <ele>749.485107</ele>
        <time>2014-03-31T14:24:46Z</time>
      </trkpt>
      <trkpt lat="42.93626" lon="-0.44391">
        <ele>748.523682</ele>
        <time>2014-03-31T14:27:05Z</time>
      </trkpt>
      <trkpt lat="42.93627" lon="-0.4439">
        <ele>749.004395</ele>
        <time>2014-03-31T14:27:07Z</time>
      </trkpt>
      <trkpt lat="42.93633" lon="-0.44379">
        <ele>748.043213</ele>
        <time>2014-03-31T14:27:19Z</time>
      </trkpt>
      <trkpt lat="42.93607" lon="-0.44385">
        <ele>746.601074</ele>
        <time>2014-03-31T14:31:28Z</time>
      </trkpt>
      <trkpt lat="42.93605" lon="-0.44386">
        <ele>746.601074</ele>
        <time>2014-03-31T14:31:45Z</time>
      </trkpt>
    </trkseg>
  </trk>
  <trk>
    <name><![CDATA[ACTIVE LOG 003]]></name>
    <trkseg>
      <trkpt lat="42.93602" lon="-0.44386">
        <ele>746.601074</ele>
        <time>2014-03-31T14:32:10Z</time>
      </trkpt>
    </trkseg>
  </trk>
  <trk>
    <name><![CDATA[ACTIVE LOG 004]]></name>
    <trkseg>
      <trkpt lat="42.93594" lon="-0.44392">
        <ele>747.081543</ele>
        <time>2014-03-31T14:32:11Z</time>
      </trkpt>
      <trkpt lat="42.93599" lon="-0.44391">
        <ele>747.081543</ele>
        <time>2014-03-31T14:33:08Z</time>
      </trkpt>
      <trkpt lat="42.93622" lon="-0.44379">
        <ele>747.562256</ele>
        <time>2014-03-31T14:34:20Z</time>
      </trkpt>
      <trkpt lat="42.93649" lon="-0.44366">
        <ele>744.197754</ele>
        <time>2014-03-31T14:41:26Z</time>
      </trkpt>
      <trkpt lat="42.93645" lon="-0.44376">
        <ele>744.197754</ele>
        <time>2014-03-31T14:43:20Z</time>
      </trkpt>
      <trkpt lat="42.93651" lon="-0.44382">
        <ele>744.197754</ele>
        <time>2014-03-31T14:43:30Z</time>
      </trkpt>
      <trkpt lat="42.93662" lon="-0.44391">
        <ele>743.236328</ele>
        <time>2014-03-31T14:45:45Z</time>
      </trkpt>
    </trkseg>
  </trk>
</gpx>